Observation data for Van Horn on 03/22/2019      Previous  Date  Next       Current Mesonet Observations  Soil Data  Daily Summary Page  Observations in Plain Language
KVA1 220500Z 05007KT 14/08 A301 RMK A01 T01350082  RH  070%=      5-min Rain = 0
KVA1 220501Z 04008KT 13/08 A301 RMK A01 T01340083  RH  071%=      5-min Rain = 0
KVA1 220502Z 03008KT 14/08 A301 RMK A01 T01350083  RH  071%=      5-min Rain = 0
KVA1 220503Z 05007KT 14/08 A301 RMK A01 T01350084  RH  071%=      5-min Rain = 0
KVA1 220504Z 04007KT 14/09 A301 RMK A01 T01360085  RH  071%=      5-min Rain = 0
KVA1 220505Z 04006KT 14/08 A301 RMK A01 T01360084  RH  071%=      5-min Rain = 0
KVA1 220506Z 04007KT 14/08 A301 RMK A01 T01360084  RH  070%=      5-min Rain = 0
KVA1 220507Z 04007KT 14/08 A301 RMK A01 T01360083  RH  071%=      5-min Rain = 0
KVA1 220508Z 04007KT 14/08 A301 RMK A01 T01350084  RH  071%=      5-min Rain = 0
KVA1 220509Z 04006KT 14/08 A301 RMK A01 T01350084  RH  071%=      5-min Rain = 0
KVA1 220510Z 03006KT 14/08 A301 RMK A01 T01350084  RH  071%=      5-min Rain = 0
KVA1 220511Z 03007KT 13/08 A3009 RMK A01 T01340083  RH  071%=      5-min Rain = 0
KVA1 220512Z 03007KT 13/08 A3009 RMK A01 T01340084  RH  071%=      5-min Rain = 0
KVA1 220513Z 03007KT 13/08 A3009 RMK A01 T01340084  RH  072%=      5-min Rain = 0
KVA1 220514Z 04006KT 13/08 A3009 RMK A01 T01340084  RH  072%=      5-min Rain = 0
KVA1 220515Z 03006KT 13/08 A3009 RMK A01 T01330084  RH  072%=      5-min Rain = 0
KVA1 220516Z 03005KT 13/08 A3009 RMK A01 T01330083  RH  072%=      5-min Rain = 0
KVA1 220517Z 03006KT 13/08 A3009 RMK A01 T01330083  RH  072%=      5-min Rain = 0
KVA1 220518Z 03006KT 13/08 A3009 RMK A01 T01320083  RH  072%=      5-min Rain = 0
KVA1 220519Z 02006KT 13/08 A3009 RMK A01 T01320083  RH  072%=      5-min Rain = 0
KVA1 220520Z 03007KT 13/08 A3009 RMK A01 T01310083  RH  073%=      5-min Rain = 0
KVA1 220521Z 04006KT 13/08 A3009 RMK A01 T01310084  RH  073%=      5-min Rain = 0
KVA1 220522Z 03006KT 13/08 A3009 RMK A01 T01310084  RH  073%=      5-min Rain = 0
KVA1 220523Z 03006KT 13/08 A3009 RMK A01 T01310083  RH  073%=      5-min Rain = 0
KVA1 220524Z 03006KT 13/08 A3009 RMK A01 T01310083  RH  073%=      5-min Rain = 0
KVA1 220525Z 04005KT 13/08 A3009 RMK A01 T01300083  RH  073%=      5-min Rain = 0
KVA1 220526Z 04005KT 13/08 A3009 RMK A01 T01300083  RH  073%=      5-min Rain = 0
KVA1 220527Z 04006KT 13/08 A3009 RMK A01 T01300083  RH  073%=      5-min Rain = 0
KVA1 220528Z 03006KT 13/08 A3009 RMK A01 T01300083  RH  073%=      5-min Rain = 0
KVA1 220529Z 04005KT 13/08 A3009 RMK A01 T01290083  RH  073%=      5-min Rain = 0
KVA1 220530Z 04005KT 13/08 A3009 RMK A01 T01290083  RH  073%=      5-min Rain = 0
KVA1 220531Z 04005KT 13/08 A3009 RMK A01 T01290083  RH  073%=      5-min Rain = 0
KVA1 220532Z 04004KT 13/08 A3009 RMK A01 T01290082  RH  073%=      5-min Rain = 0
KVA1 220533Z 04004KT 13/08 A3009 RMK A01 T01290083  RH  073%=      5-min Rain = 0
KVA1 220534Z 04004KT 13/08 A3009 RMK A01 T01290082  RH  073%=      5-min Rain = 0
KVA1 220535Z 04004KT 13/08 A3009 RMK A01 T01290082  RH  073%=      5-min Rain = 0
KVA1 220536Z 04003KT 13/08 A3009 RMK A01 T01280082  RH  073%=      5-min Rain = 0
KVA1 220537Z 04003KT 13/08 A3009 RMK A01 T01280082  RH  074%=      5-min Rain = 0
KVA1 220538Z 05003KT 13/08 A3009 RMK A01 T01270082  RH  074%=      5-min Rain = 0
KVA1 220539Z 05002KT 13/08 A3009 RMK A01 T01270081  RH  074%=      5-min Rain = 0
KVA1 220540Z 05003KT 13/08 A3009 RMK A01 T01260081  RH  074%=      5-min Rain = 0
KVA1 220541Z 05004KT 13/08 A3009 RMK A01 T01260081  RH  074%=      5-min Rain = 0
KVA1 220542Z 05005KT 13/08 A3009 RMK A01 T01260081  RH  074%=      5-min Rain = 0
KVA1 220543Z 04005KT 13/08 A3009 RMK A01 T01250081  RH  074%=      5-min Rain = 0
KVA1 220544Z 04006KT 12/08 A3008 RMK A01 T01240081  RH  075%=      5-min Rain = 0
KVA1 220545Z 03007KT 12/08 A3008 RMK A01 T01240080  RH  075%=      5-min Rain = 0
KVA1 220546Z 04007KT 12/08 A3008 RMK A01 T01230080  RH  075%=      5-min Rain = 0
KVA1 220547Z 03006KT 12/08 A3008 RMK A01 T01230081  RH  075%=      5-min Rain = 0
KVA1 220548Z 04005KT 12/08 A3008 RMK A01 T01230081  RH  075%=      5-min Rain = 0
KVA1 220549Z 05006KT 12/08 A3009 RMK A01 T01230081  RH  075%=      5-min Rain = 0
KVA1 220550Z 05005KT 12/08 A3009 RMK A01 T01230081  RH  075%=      5-min Rain = 0
KVA1 220551Z 05005KT 12/08 A3009 RMK A01 T01240082  RH  075%=      5-min Rain = 0
KVA1 220552Z 05004KT 13/08 A3009 RMK A01 T01250082  RH  075%=      5-min Rain = 0
KVA1 220553Z 06003KT 13/08 A3009 RMK A01 T01260083  RH  075%=      5-min Rain = 0
KVA1 220554Z 06003KT 13/08 A3009 RMK A01 T01260083  RH  075%=      5-min Rain = 0
KVA1 220555Z 07004KT 13/08 A3009 RMK A01 T01260083  RH  075%=      5-min Rain = 0
KVA1 220556Z 06005KT 13/08 A3008 RMK A01 T01260083  RH  075%=      5-min Rain = 0
KVA1 220557Z 05006KT 13/08 A3008 RMK A01 T01260083  RH  075%=      5-min Rain = 0
KVA1 220558Z 04006KT 13/08 A3008 RMK A01 T01260083  RH  075%=      5-min Rain = 0
KVA1 220559Z 04005KT 13/08 A3008 RMK A01 T01270083  RH  075%=      5-min Rain = 0
KVA1 220600Z 04005KT 13/08 A3008 RMK A01 T01270083  RH  075%=      5-min Rain = 0
KVA1 220601Z 04005KT 13/08 A3008 RMK A01 T01270083  RH  075%=      5-min Rain = 0
KVA1 220602Z 04005KT 13/08 A3008 RMK A01 T01260083  RH  075%=      5-min Rain = 0
KVA1 220603Z 04005KT 13/08 A3008 RMK A01 T01260083  RH  075%=      5-min Rain = 0
KVA1 220604Z 04006KT 13/08 A3008 RMK A01 T01250082  RH  075%=      5-min Rain = 0
KVA1 220605Z 04006KT 13/08 A3008 RMK A01 T01250082  RH  075%=      5-min Rain = 0
KVA1 220606Z 03006KT 12/08 A3008 RMK A01 T01240083  RH  076%=      5-min Rain = 0
KVA1 220607Z 03006KT 12/08 A3008 RMK A01 T01240083  RH  076%=      5-min Rain = 0
KVA1 220608Z 04006KT 12/08 A3008 RMK A01 T01240084  RH  076%=      5-min Rain = 0
KVA1 220609Z 04006KT 12/08 A3008 RMK A01 T01240084  RH  076%=      5-min Rain = 0
KVA1 220610Z 04005KT 12/08 A3008 RMK A01 T01240084  RH  076%=      5-min Rain = 0
KVA1 220611Z 03005KT 12/08 A3008 RMK A01 T01240084  RH  076%=      5-min Rain = 0
KVA1 220612Z 03005KT 12/08 A3008 RMK A01 T01240084  RH  076%=      5-min Rain = 0
KVA1 220613Z 02006KT 12/08 A3008 RMK A01 T01240083  RH  076%=      5-min Rain = 0
KVA1 220614Z 03006KT 12/08 A3008 RMK A01 T01240084  RH  077%=      5-min Rain = 0
KVA1 220615Z 02007KT 12/08 A3008 RMK A01 T01240084  RH  077%=      5-min Rain = 0
KVA1 220616Z 01008KT 12/08 A3008 RMK A01 T01240084  RH  077%=      5-min Rain = 0
KVA1 220617Z 01008KT 12/08 A3008 RMK A01 T01230084  RH  077%=      5-min Rain = 0
KVA1 220618Z 01008KT 12/08 A3008 RMK A01 T01240084  RH  077%=      5-min Rain = 0
KVA1 220619Z 01007KT 12/09 A3007 RMK A01 T01240085  RH  077%=      5-min Rain = 0
KVA1 220620Z 01006KT 12/09 A3007 RMK A01 T01240085  RH  077%=      5-min Rain = 0
KVA1 220621Z 36007KT 12/09 A3007 RMK A01 T01240085  RH  077%=      5-min Rain = 0
KVA1 220622Z 00008KT 12/09 A3007 RMK A01 T01240085  RH  077%=      5-min Rain = 0
KVA1 220623Z 01007KT 13/09 A3007 RMK A01 T01250086  RH  077%=      5-min Rain = 0
KVA1 220624Z 01007KT 13/09 A3007 RMK A01 T01250086  RH  077%=      5-min Rain = 0
KVA1 220625Z 01007KT 13/09 A3007 RMK A01 T01260086  RH  077%=      5-min Rain = 0
KVA1 220626Z 01007KT 13/09 A3007 RMK A01 T01270087  RH  077%=      5-min Rain = 0
KVA1 220627Z 01007KT 13/09 A3007 RMK A01 T01270087  RH  076%=      5-min Rain = 0
KVA1 220628Z 01006KT 13/09 A3008 RMK A01 T01280087  RH  076%=      5-min Rain = 0
KVA1 220629Z 01006KT 13/09 A3008 RMK A01 T01280087  RH  076%=      5-min Rain = 0
KVA1 220630Z 01005KT 13/09 A3008 RMK A01 T01280087  RH  076%=      5-min Rain = 0
KVA1 220631Z 01005KT 13/09 A3008 RMK A01 T01280087  RH  076%=      5-min Rain = 0
KVA1 220632Z 01005KT 13/09 A3008 RMK A01 T01280087  RH  076%=      5-min Rain = 0
KVA1 220633Z 02004KT 13/09 A3008 RMK A01 T01280087  RH  076%=      5-min Rain = 0
KVA1 220634Z 01006KT 13/09 A3008 RMK A01 T01280087  RH  076%=      5-min Rain = 0
KVA1 220635Z 01005KT 13/09 A3008 RMK A01 T01280087  RH  076%=      5-min Rain = 0
KVA1 220636Z 02004KT 13/09 A3008 RMK A01 T01280087  RH  076%=      5-min Rain = 0
KVA1 220637Z 03004KT 13/09 A3008 RMK A01 T01280087  RH  076%=      5-min Rain = 0
KVA1 220638Z 03004KT 13/09 A3008 RMK A01 T01290087  RH  076%=      5-min Rain = 0
KVA1 220639Z 03004KT 13/09 A3008 RMK A01 T01290088  RH  076%=      5-min Rain = 0
KVA1 220640Z 03004KT 13/09 A3008 RMK A01 T01280087  RH  076%=      5-min Rain = 0
KVA1 220641Z 03004KT 13/09 A3008 RMK A01 T01280087  RH  076%=      5-min Rain = 0
KVA1 220642Z 02005KT 13/09 A3008 RMK A01 T01280087  RH  076%=      5-min Rain = 0
KVA1 220643Z 02006KT 13/09 A3008 RMK A01 T01280087  RH  076%=      5-min Rain = 0
KVA1 220644Z 01006KT 13/09 A3008 RMK A01 T01280087  RH  076%=      5-min Rain = 0
KVA1 220645Z 36006KT 13/09 A3008 RMK A01 T01270087  RH  076%=      5-min Rain = 0
KVA1 220646Z 36005KT 13/09 A3008 RMK A01 T01280087  RH  076%=      5-min Rain = 0
KVA1 220647Z 00005KT 13/09 A3008 RMK A01 T01280087  RH  076%=      5-min Rain = 0
KVA1 220648Z 36005KT 13/09 A3008 RMK A01 T01270087  RH  076%=      5-min Rain = 0
KVA1 220649Z 01005KT 13/09 A3008 RMK A01 T01270087  RH  076%=      5-min Rain = 0
KVA1 220650Z 01005KT 13/09 A3008 RMK A01 T01270087  RH  076%=      5-min Rain = 0
KVA1 220651Z 02004KT 13/09 A3008 RMK A01 T01270087  RH  077%=      5-min Rain = 0
KVA1 220652Z 02004KT 13/09 A3008 RMK A01 T01270087  RH  077%=      5-min Rain = 0
KVA1 220653Z 02004KT 13/09 A3008 RMK A01 T01270087  RH  077%=      5-min Rain = 0
KVA1 220654Z 02004KT 13/09 A3008 RMK A01 T01270087  RH  077%=      5-min Rain = 0
KVA1 220655Z 02004KT 13/09 A3008 RMK A01 T01270087  RH  077%=      5-min Rain = 0
KVA1 220656Z 03003KT 13/09 A3008 RMK A01 T01270087  RH  077%=      5-min Rain = 0
KVA1 220657Z 04003KT 13/09 A3008 RMK A01 T01280088  RH  077%=      5-min Rain = 0
KVA1 220658Z 04003KT 13/09 A3008 RMK A01 T01270087  RH  077%=      5-min Rain = 0
KVA1 220659Z 04004KT 13/09 A3008 RMK A01 T01270087  RH  076%=      5-min Rain = 0
KVA1 220700Z 04005KT 13/09 A3008 RMK A01 T01270087  RH  077%=      5-min Rain = 0
KVA1 220701Z 04004KT 13/09 A3008 RMK A01 T01270087  RH  076%=      5-min Rain = 0
KVA1 220702Z 04004KT 13/09 A3008 RMK A01 T01280087  RH  076%=      5-min Rain = 0
KVA1 220703Z 04004KT 13/09 A3008 RMK A01 T01280087  RH  076%=      5-min Rain = 0
KVA1 220704Z 04004KT 13/09 A3008 RMK A01 T01280088  RH  077%=      5-min Rain = 0
KVA1 220705Z 04004KT 13/09 A3008 RMK A01 T01270088  RH  077%=      5-min Rain = 0
KVA1 220706Z 04005KT 13/09 A3007 RMK A01 T01270088  RH  077%=      5-min Rain = 0
KVA1 220707Z 04005KT 13/09 A3007 RMK A01 T01270088  RH  077%=      5-min Rain = 0
KVA1 220708Z 04006KT 13/09 A3007 RMK A01 T01270088  RH  077%=      5-min Rain = 0
KVA1 220709Z 04005KT 13/09 A3007 RMK A01 T01270088  RH  077%=      5-min Rain = 0
KVA1 220710Z 04005KT 13/09 A3007 RMK A01 T01270088  RH  077%=      5-min Rain = 0
KVA1 220711Z 04006KT 13/09 A3007 RMK A01 T01270088  RH  077%=      5-min Rain = 0
KVA1 220712Z 04006KT 13/09 A3007 RMK A01 T01270088  RH  077%=      5-min Rain = 0
KVA1 220713Z 04005KT 13/09 A3007 RMK A01 T01270088  RH  078%=      5-min Rain = 0
KVA1 220714Z 03005KT 13/09 A3007 RMK A01 T01260088  RH  078%=      5-min Rain = 0
KVA1 220715Z 03005KT 13/09 A3007 RMK A01 T01260089  RH  078%=      5-min Rain = 0
KVA1 220716Z 03005KT 13/09 A3007 RMK A01 T01260089  RH  078%=      5-min Rain = 0
KVA1 220717Z 03004KT 13/09 A3007 RMK A01 T01260089  RH  078%=      5-min Rain = 0
KVA1 220718Z 03005KT 13/09 A3007 RMK A01 T01260089  RH  078%=      5-min Rain = 0
KVA1 220719Z 03005KT 13/09 A3007 RMK A01 T01260089  RH  078%=      5-min Rain = 0
KVA1 220720Z 03004KT 13/09 A3007 RMK A01 T01260089  RH  078%=      5-min Rain = 0
KVA1 220721Z 03002KT 13/09 A3008 RMK A01 T01260089  RH  078%=      5-min Rain = 0
KVA1 220722Z 03003KT 13/09 A3008 RMK A01 T01250089  RH  078%=      5-min Rain = 0
KVA1 220723Z 03003KT 13/09 A3008 RMK A01 T01250089  RH  078%=      5-min Rain = 0
KVA1 220724Z 03003KT 13/09 A3008 RMK A01 T01250089  RH  078%=      5-min Rain = 0
KVA1 220725Z 03004KT 13/09 A3007 RMK A01 T01250089  RH  078%=      5-min Rain = 0
KVA1 220726Z 02005KT 13/09 A3007 RMK A01 T01250089  RH  079%=      5-min Rain = 0
KVA1 220727Z 02006KT 13/09 A3006 RMK A01 T01250089  RH  079%=      5-min Rain = 0
KVA1 220728Z 02007KT 12/09 A3006 RMK A01 T01240088  RH  079%=      5-min Rain = 0
KVA1 220729Z 02007KT 12/09 A3006 RMK A01 T01240089  RH  079%=      5-min Rain = 0
KVA1 220730Z 02005KT 12/09 A3006 RMK A01 T01240088  RH  079%=      5-min Rain = 0
KVA1 220731Z 03005KT 12/09 A3006 RMK A01 T01240089  RH  079%=      5-min Rain = 0
KVA1 220732Z 04005KT 12/09 A3006 RMK A01 T01240089  RH  079%=      5-min Rain = 0
KVA1 220733Z 04004KT 12/09 A3006 RMK A01 T01240089  RH  079%=      5-min Rain = 0
KVA1 220734Z 04004KT 12/09 A3006 RMK A01 T01240089  RH  079%=      5-min Rain = 0
KVA1 220735Z 03005KT 12/09 A3006 RMK A01 T01240088  RH  079%=      5-min Rain = 0
KVA1 220736Z 04004KT 12/09 A3006 RMK A01 T01240088  RH  079%=      5-min Rain = 0
KVA1 220737Z 04004KT 12/09 A3006 RMK A01 T01240089  RH  079%=      5-min Rain = 0
KVA1 220738Z 03005KT 12/09 A3006 RMK A01 T01240088  RH  079%=      5-min Rain = 0
KVA1 220739Z 03005KT 12/09 A3006 RMK A01 T01240088  RH  079%=      5-min Rain = 0
KVA1 220740Z 02005KT 12/09 A3006 RMK A01 T01240088  RH  079%=      5-min Rain = 0
KVA1 220741Z 01004KT 12/09 A3006 RMK A01 T01240088  RH  079%=      5-min Rain = 0
KVA1 220742Z 02004KT 12/09 A3006 RMK A01 T01230088  RH  079%=      5-min Rain = 0
KVA1 220743Z 00003KT 12/09 A3006 RMK A01 T01240088  RH  079%=      5-min Rain = 0
KVA1 220744Z 01005KT 12/09 A3006 RMK A01 T01230088  RH  079%=      5-min Rain = 0
KVA1 220745Z 02005KT 12/09 A3006 RMK A01 T01230088  RH  079%=      5-min Rain = 0
KVA1 220746Z 02005KT 12/09 A3006 RMK A01 T01230088  RH  079%=      5-min Rain = 0
KVA1 220747Z 03005KT 12/09 A3006 RMK A01 T01230088  RH  079%=      5-min Rain = 0
KVA1 220748Z 04005KT 12/09 A3006 RMK A01 T01220088  RH  079%=      5-min Rain = 0
KVA1 220749Z 04003KT 12/09 A3006 RMK A01 T01230088  RH  079%=      5-min Rain = 0
KVA1 220750Z 05003KT 12/09 A3007 RMK A01 T01230088  RH  079%=      5-min Rain = 0
KVA1 220751Z 05002KT 12/09 A3007 RMK A01 T01230088  RH  079%=      5-min Rain = 0
KVA1 220752Z 07002KT 12/09 A3007 RMK A01 T01220088  RH  079%=      5-min Rain = 0
KVA1 220753Z 09002KT 12/09 A3007 RMK A01 T01230087  RH  079%=      5-min Rain = 0
KVA1 220754Z 10001KT 12/09 A3007 RMK A01 T01230087  RH  079%=      5-min Rain = 0
KVA1 220755Z 11002KT 12/09 A3007 RMK A01 T01230088  RH  079%=      5-min Rain = 0
KVA1 220756Z 11002KT 12/09 A3006 RMK A01 T01230088  RH  079%=      5-min Rain = 0
KVA1 220757Z 09002KT 12/09 A3006 RMK A01 T01220087  RH  079%=      5-min Rain = 0
KVA1 220758Z 08001KT 12/09 A3006 RMK A01 T01220087  RH  079%=      5-min Rain = 0
KVA1 220759Z 07001KT 12/09 A3006 RMK A01 T01210087  RH  080%=      5-min Rain = 0
KVA1 220800Z 09001KT 12/09 A3006 RMK A01 T01210087  RH  080%=      5-min Rain = 0
KVA1 220801Z 11001KT 12/09 A3006 RMK A01 T01210087  RH  080%=      5-min Rain = 0
KVA1 220802Z 12002KT 12/09 A3006 RMK A01 T01200087  RH  080%=      5-min Rain = 0
KVA1 220803Z 12003KT 12/09 A3006 RMK A01 T01200087  RH  080%=      5-min Rain = 0
KVA1 220804Z 11003KT 12/09 A3006 RMK A01 T01200086  RH  080%=      5-min Rain = 0
KVA1 220805Z 11003KT 12/09 A3006 RMK A01 T01190086  RH  080%=      5-min Rain = 0
KVA1 220806Z 10003KT 12/09 A3006 RMK A01 T01190086  RH  080%=      5-min Rain = 0
KVA1 220807Z 10003KT 12/09 A3006 RMK A01 T01180086  RH  080%=      5-min Rain = 0
KVA1 220808Z 10003KT 12/09 A3006 RMK A01 T01180085  RH  080%=      5-min Rain = 0
KVA1 220809Z 10003KT 12/09 A3006 RMK A01 T01170085  RH  081%=      5-min Rain = 0
KVA1 220810Z 10003KT 12/09 A3006 RMK A01 T01170085  RH  081%=      5-min Rain = 0
KVA1 220811Z 09002KT 12/09 A3006 RMK A01 T01170085  RH  081%=      5-min Rain = 0
KVA1 220812Z 10002KT 12/09 A3006 RMK A01 T01160085  RH  081%=      5-min Rain = 0
KVA1 220813Z 12002KT 12/09 A3006 RMK A01 T01170085  RH  081%=      5-min Rain = 0
KVA1 220814Z 16002KT 12/09 A3006 RMK A01 T01160085  RH  081%=      5-min Rain = 0
KVA1 220815Z 17003KT 12/09 A3006 RMK A01 T01160085  RH  081%=      5-min Rain = 0
KVA1 220816Z 17003KT 12/09 A3006 RMK A01 T01160085  RH  081%=      5-min Rain = 0
KVA1 220817Z 17002KT 12/08 A3006 RMK A01 T01160084  RH  081%=      5-min Rain = 0
KVA1 220818Z 15001KT 12/08 A3006 RMK A01 T01150084  RH  081%=      5-min Rain = 0
KVA1 220819Z 11001KT 12/08 A3006 RMK A01 T01150084  RH  081%=      5-min Rain = 0
KVA1 220820Z 10001KT 12/08 A3006 RMK A01 T01150084  RH  081%=      5-min Rain = 0
KVA1 220821Z 07001KT 12/08 A3005 RMK A01 T01150083  RH  081%=      5-min Rain = 0
KVA1 220822Z 06002KT 11/08 A3005 RMK A01 T01140084  RH  082%=      5-min Rain = 0
KVA1 220823Z 06003KT 11/09 A3005 RMK A01 T01140085  RH  082%=      5-min Rain = 0
KVA1 220824Z 05003KT 11/08 A3005 RMK A01 T01140084  RH  081%=      5-min Rain = 0
KVA1 220825Z 03004KT 11/08 A3005 RMK A01 T01140084  RH  082%=      5-min Rain = 0
KVA1 220826Z 03004KT 11/08 A3005 RMK A01 T01140084  RH  082%=      5-min Rain = 0
KVA1 220827Z 02004KT 11/09 A3005 RMK A01 T01140085  RH  082%=      5-min Rain = 0
KVA1 220828Z 02004KT 11/09 A3005 RMK A01 T01140085  RH  082%=      5-min Rain = 0
KVA1 220829Z 02003KT 12/09 A3005 RMK A01 T01150085  RH  082%=      5-min Rain = 0
KVA1 220830Z 03003KT 12/09 A3005 RMK A01 T01150085  RH  082%=      5-min Rain = 0
KVA1 220831Z 05002KT 12/09 A3006 RMK A01 T01150085  RH  082%=      5-min Rain = 0
KVA1 220832Z 16002KT 12/09 A3006 RMK A01 T01150085  RH  082%=      5-min Rain = 0
KVA1 220833Z 17004KT 12/08 A3006 RMK A01 T01150083  RH  081%=      5-min Rain = 0
KVA1 220834Z 16004KT 11/08 A3006 RMK A01 T01130081  RH  081%=      5-min Rain = 0
KVA1 220835Z 15003KT 11/08 A3006 RMK A01 T01110080  RH  081%=      5-min Rain = 0
KVA1 220836Z 14002KT 11/08 A3006 RMK A01 T01100080  RH  082%=      5-min Rain = 0
KVA1 220837Z 13002KT 11/08 A3006 RMK A01 T01090080  RH  082%=      5-min Rain = 0
KVA1 220838Z 13002KT 11/08 A3006 RMK A01 T01090081  RH  083%=      5-min Rain = 0
KVA1 220839Z 11002KT 11/08 A3006 RMK A01 T01080081  RH  083%=      5-min Rain = 0
KVA1 220840Z 10003KT 11/08 A3006 RMK A01 T01080081  RH  084%=      5-min Rain = 0
KVA1 220841Z 09002KT 11/08 A3006 RMK A01 T01080081  RH  084%=      5-min Rain = 0
KVA1 220842Z 07002KT 11/08 A3006 RMK A01 T01080083  RH  084%=      5-min Rain = 0
KVA1 220843Z 07002KT 11/08 A3006 RMK A01 T01080082  RH  084%=      5-min Rain = 0
KVA1 220844Z 07002KT 11/08 A3006 RMK A01 T01090083  RH  084%=      5-min Rain = 0
KVA1 220845Z 07002KT 11/08 A3006 RMK A01 T01090082  RH  083%=      5-min Rain = 0
KVA1 220846Z 07002KT 11/08 A3005 RMK A01 T01090082  RH  083%=      5-min Rain = 0
KVA1 220847Z 07002KT 11/08 A3005 RMK A01 T01100083  RH  083%=      5-min Rain = 0
KVA1 220848Z 08002KT 11/08 A3005 RMK A01 T01090082  RH  083%=      5-min Rain = 0
KVA1 220849Z 08002KT 11/08 A3005 RMK A01 T01090082  RH  083%=      5-min Rain = 0
KVA1 220850Z 08002KT 11/08 A3005 RMK A01 T01090082  RH  083%=      5-min Rain = 0
KVA1 220851Z 09002KT 11/08 A3005 RMK A01 T01090082  RH  084%=      5-min Rain = 0
KVA1 220852Z 09002KT 11/08 A3005 RMK A01 T01090083  RH  084%=      5-min Rain = 0
KVA1 220853Z 08002KT 11/08 A3005 RMK A01 T01100083  RH  084%=      5-min Rain = 0
KVA1 220854Z 06002KT 11/08 A3005 RMK A01 T01100084  RH  084%=      5-min Rain = 0
KVA1 220855Z 05002KT 11/09 A3005 RMK A01 T01110085  RH  084%=      5-min Rain = 0
KVA1 220856Z 04002KT 11/08 A3005 RMK A01 T01120084  RH  083%=      5-min Rain = 0
KVA1 220857Z 04002KT 11/08 A3005 RMK A01 T01120084  RH  083%=      5-min Rain = 0
KVA1 220858Z 06002KT 11/08 A3005 RMK A01 T01120084  RH  083%=      5-min Rain = 0
KVA1 220859Z 06002KT 11/08 A3005 RMK A01 T01120083  RH  082%=      5-min Rain = 0
KVA1 220900Z 04002KT 11/08 A3005 RMK A01 T01120083  RH  082%=      5-min Rain = 0
KVA1 220901Z 03002KT 11/08 A3005 RMK A01 T01120084  RH  083%=      5-min Rain = 0
KVA1 220902Z 02002KT 11/08 A3004 RMK A01 T01120084  RH  083%=      5-min Rain = 0
KVA1 220903Z 02001KT 11/08 A3004 RMK A01 T01120083  RH  083%=      5-min Rain = 0
KVA1 220904Z 00001KT 11/08 A3004 RMK A01 T01110083  RH  083%=      5-min Rain = 0
KVA1 220905Z 00000KT 11/08 A3004 RMK A01 T01110081  RH  082%=      5-min Rain = 0
KVA1 220906Z 00000KT 11/08 A3004 RMK A01 T01100080  RH  082%=      5-min Rain = 0
KVA1 220907Z 18001KT 11/08 A3004 RMK A01 T01090080  RH  082%=      5-min Rain = 0
KVA1 220908Z 18002KT 11/08 A3004 RMK A01 T01090081  RH  083%=      5-min Rain = 0
KVA1 220909Z 19002KT 11/08 A3004 RMK A01 T01090081  RH  083%=      5-min Rain = 0
KVA1 220910Z 21002KT 11/08 A3004 RMK A01 T01080081  RH  083%=      5-min Rain = 0
KVA1 220911Z 21001KT 11/08 A3004 RMK A01 T01080081  RH  083%=      5-min Rain = 0
KVA1 220912Z 21000KT 11/08 A3004 RMK A01 T01080080  RH  083%=      5-min Rain = 0
KVA1 220913Z 00000KT 11/08 A3004 RMK A01 T01080081  RH  084%=      5-min Rain = 0
KVA1 220914Z 00000KT 11/08 A3004 RMK A01 T01080082  RH  084%=      5-min Rain = 0
KVA1 220915Z 00000KT 11/08 A3004 RMK A01 T01080081  RH  083%=      5-min Rain = 0
KVA1 220916Z 00000KT 11/08 A3004 RMK A01 T01080080  RH  083%=      5-min Rain = 0
KVA1 220917Z 00000KT 11/08 A3004 RMK A01 T01080081  RH  084%=      5-min Rain = 0
KVA1 220918Z 00000KT 11/08 A3004 RMK A01 T01070081  RH  084%=      5-min Rain = 0
KVA1 220919Z 00000KT 11/08 A3004 RMK A01 T01070080  RH  083%=      5-min Rain = 0
KVA1 220920Z 00000KT 11/08 A3004 RMK A01 T01070079  RH  083%=      5-min Rain = 0
KVA1 220921Z 00000KT 11/08 A3004 RMK A01 T01070079  RH  083%=      5-min Rain = 0
KVA1 220922Z 00000KT 11/08 A3004 RMK A01 T01070080  RH  083%=      5-min Rain = 0
KVA1 220923Z 23001KT 11/08 A3004 RMK A01 T01080081  RH  083%=      5-min Rain = 0
KVA1 220924Z 23003KT 11/08 A3004 RMK A01 T01070079  RH  083%=      5-min Rain = 0
KVA1 220925Z 22003KT 11/08 A3004 RMK A01 T01070079  RH  083%=      5-min Rain = 0
KVA1 220926Z 21003KT 11/08 A3004 RMK A01 T01060079  RH  083%=      5-min Rain = 0
KVA1 220927Z 21002KT 11/08 A3004 RMK A01 T01060079  RH  083%=      5-min Rain = 0
KVA1 220928Z 21002KT 11/08 A3004 RMK A01 T01050079  RH  084%=      5-min Rain = 0
KVA1 220929Z 24003KT 11/08 A3004 RMK A01 T01050079  RH  084%=      5-min Rain = 0
KVA1 220930Z 24004KT 11/08 A3004 RMK A01 T01050079  RH  084%=      5-min Rain = 0
KVA1 220931Z 23004KT 11/08 A3004 RMK A01 T01050079  RH  084%=      5-min Rain = 0
KVA1 220932Z 22004KT 11/08 A3004 RMK A01 T01050079  RH  084%=      5-min Rain = 0
KVA1 220933Z 21004KT 11/08 A3004 RMK A01 T01050080  RH  085%=      5-min Rain = 0
KVA1 220934Z 21003KT 11/08 A3004 RMK A01 T01060082  RH  085%=      5-min Rain = 0
KVA1 220935Z 22003KT 11/08 A3004 RMK A01 T01070083  RH  085%=      5-min Rain = 0
KVA1 220936Z 22003KT 11/08 A3004 RMK A01 T01080083  RH  085%=      5-min Rain = 0
KVA1 220937Z 22004KT 11/08 A3004 RMK A01 T01080082  RH  084%=      5-min Rain = 0
KVA1 220938Z 21003KT 11/08 A3004 RMK A01 T01080082  RH  084%=      5-min Rain = 0
KVA1 220939Z 21004KT 11/08 A3004 RMK A01 T01080081  RH  083%=      5-min Rain = 0
KVA1 220940Z 21004KT 11/08 A3004 RMK A01 T01070080  RH  083%=      5-min Rain = 0
KVA1 220941Z 21004KT 11/08 A3004 RMK A01 T01070080  RH  083%=      5-min Rain = 0
KVA1 220942Z 21004KT 11/08 A3004 RMK A01 T01070080  RH  084%=      5-min Rain = 0
KVA1 220943Z 20004KT 11/08 A3004 RMK A01 T01070081  RH  084%=      5-min Rain = 0
KVA1 220944Z 19005KT 11/08 A3004 RMK A01 T01070081  RH  084%=      5-min Rain = 0
KVA1 220945Z 19004KT 11/08 A3004 RMK A01 T01070081  RH  084%=      5-min Rain = 0
KVA1 220946Z 19003KT 11/08 A3004 RMK A01 T01070081  RH  084%=      5-min Rain = 0
KVA1 220947Z 18004KT 11/08 A3004 RMK A01 T01060080  RH  084%=      5-min Rain = 0
KVA1 220948Z 18004KT 11/08 A3004 RMK A01 T01060080  RH  084%=      5-min Rain = 0
KVA1 220949Z 18004KT 11/08 A3004 RMK A01 T01060080  RH  084%=      5-min Rain = 0
KVA1 220950Z 19003KT 11/08 A3004 RMK A01 T01060080  RH  084%=      5-min Rain = 0
KVA1 220951Z 20003KT 11/08 A3004 RMK A01 T01060081  RH  084%=      5-min Rain = 0
KVA1 220952Z 20004KT 11/08 A3004 RMK A01 T01070082  RH  084%=      5-min Rain = 0
KVA1 220953Z 19004KT 11/08 A3004 RMK A01 T01070081  RH  084%=      5-min Rain = 0
KVA1 220954Z 19003KT 11/08 A3004 RMK A01 T01070081  RH  084%=      5-min Rain = 0
KVA1 220955Z 19003KT 11/08 A3004 RMK A01 T01080081  RH  084%=      5-min Rain = 0
KVA1 220956Z 20002KT 11/08 A3004 RMK A01 T01070081  RH  084%=      5-min Rain = 0
KVA1 220957Z 21003KT 11/08 A3004 RMK A01 T01070080  RH  084%=      5-min Rain = 0
KVA1 220958Z 20003KT 11/08 A3004 RMK A01 T01070080  RH  084%=      5-min Rain = 0
KVA1 220959Z 20003KT 11/08 A3004 RMK A01 T01070081  RH  084%=      5-min Rain = 0
KVA1 221000Z 19004KT 11/08 A3004 RMK A01 T01070081  RH  084%=      5-min Rain = 0
KVA1 221001Z 19004KT 11/08 A3004 RMK A01 T01070081  RH  084%=      5-min Rain = 0
KVA1 221002Z 19004KT 11/08 A3004 RMK A01 T01070081  RH  084%=      5-min Rain = 0
KVA1 221003Z 19003KT 11/08 A3004 RMK A01 T01070081  RH  084%=      5-min Rain = 0
KVA1 221004Z 20002KT 11/08 A3004 RMK A01 T01070081  RH  084%=      5-min Rain = 0
KVA1 221005Z 19003KT 11/08 A3004 RMK A01 T01070081  RH  084%=      5-min Rain = 0
KVA1 221006Z 19003KT 11/08 A3004 RMK A01 T01070081  RH  084%=      5-min Rain = 0
KVA1 221007Z 19003KT 11/08 A3004 RMK A01 T01070081  RH  084%=      5-min Rain = 0
KVA1 221008Z 19004KT 11/08 A3004 RMK A01 T01070081  RH  084%=      5-min Rain = 0
KVA1 221009Z 20004KT 11/08 A3004 RMK A01 T01070081  RH  084%=      5-min Rain = 0
KVA1 221010Z 19004KT 11/08 A3003 RMK A01 T01070081  RH  084%=      5-min Rain = 0
KVA1 221011Z 19003KT 11/08 A3003 RMK A01 T01070081  RH  084%=      5-min Rain = 0
KVA1 221012Z 18004KT 11/08 A3003 RMK A01 T01080082  RH  084%=      5-min Rain = 0
KVA1 221013Z 17004KT 11/08 A3003 RMK A01 T01070081  RH  084%=      5-min Rain = 0
KVA1 221014Z 16003KT 11/08 A3003 RMK A01 T01080081  RH  084%=      5-min Rain = 0
KVA1 221015Z 16004KT 11/08 A3003 RMK A01 T01070081  RH  084%=      5-min Rain = 0
KVA1 221016Z 17003KT 11/08 A3003 RMK A01 T01070082  RH  084%=      5-min Rain = 0
KVA1 221017Z 17003KT 11/08 A3003 RMK A01 T01070082  RH  084%=      5-min Rain = 0
KVA1 221018Z 17003KT 11/08 A3003 RMK A01 T01080082  RH  084%=      5-min Rain = 0
KVA1 221019Z 17002KT 11/08 A3003 RMK A01 T01080082  RH  084%=      5-min Rain = 0
KVA1 221020Z 17003KT 11/08 A3003 RMK A01 T01080082  RH  084%=      5-min Rain = 0
KVA1 221021Z 17002KT 11/08 A3003 RMK A01 T01080082  RH  084%=      5-min Rain = 0
KVA1 221022Z 18002KT 11/08 A3003 RMK A01 T01080082  RH  084%=      5-min Rain = 0
KVA1 221023Z 19002KT 11/08 A3003 RMK A01 T01090083  RH  084%=      5-min Rain = 0
KVA1 221024Z 20002KT 11/08 A3003 RMK A01 T01090083  RH  084%=      5-min Rain = 0
KVA1 221025Z 21003KT 11/08 A3003 RMK A01 T01090083  RH  084%=      5-min Rain = 0
KVA1 221026Z 21003KT 11/08 A3003 RMK A01 T01090082  RH  083%=      5-min Rain = 0
KVA1 221027Z 21003KT 11/08 A3003 RMK A01 T01090081  RH  083%=      5-min Rain = 0
KVA1 221028Z 21002KT 11/08 A3003 RMK A01 T01080081  RH  083%=      5-min Rain = 0
KVA1 221029Z 22003KT 11/08 A3003 RMK A01 T01070081  RH  084%=      5-min Rain = 0
KVA1 221030Z 23004KT 11/08 A3003 RMK A01 T01070081  RH  084%=      5-min Rain = 0
KVA1 221031Z 23003KT 11/08 A3003 RMK A01 T01070081  RH  084%=      5-min Rain = 0
KVA1 221032Z 23004KT 11/08 A3003 RMK A01 T01070082  RH  084%=      5-min Rain = 0
KVA1 221033Z 23003KT 11/08 A3003 RMK A01 T01070082  RH  084%=      5-min Rain = 0
KVA1 221034Z 23003KT 11/08 A3003 RMK A01 T01070082  RH  084%=      5-min Rain = 0
KVA1 221035Z 22003KT 11/08 A3003 RMK A01 T01070081  RH  084%=      5-min Rain = 0
KVA1 221036Z 23003KT 11/08 A3003 RMK A01 T01070082  RH  084%=      5-min Rain = 0
KVA1 221037Z 22003KT 11/08 A3003 RMK A01 T01070082  RH  084%=      5-min Rain = 0
KVA1 221038Z 22004KT 11/08 A3003 RMK A01 T01070082  RH  084%=      5-min Rain = 0
KVA1 221039Z 22004KT 11/08 A3003 RMK A01 T01070082  RH  084%=      5-min Rain = 0
KVA1 221040Z 22004KT 11/08 A3003 RMK A01 T01070081  RH  084%=      5-min Rain = 0
KVA1 221041Z 22004KT 11/08 A3003 RMK A01 T01070082  RH  084%=      5-min Rain = 0
KVA1 221042Z 23004KT 11/08 A3003 RMK A01 T01070082  RH  084%=      5-min Rain = 0
KVA1 221043Z 23005KT 11/08 A3003 RMK A01 T01070082  RH  085%=      5-min Rain = 0
KVA1 221044Z 22005KT 11/08 A3003 RMK A01 T01070082  RH  085%=      5-min Rain = 0
KVA1 221045Z 24005KT 11/08 A3003 RMK A01 T01070083  RH  085%=      5-min Rain = 0
KVA1 221046Z 24005KT 11/08 A3003 RMK A01 T01080083  RH  085%=      5-min Rain = 0
KVA1 221047Z 25005KT 11/08 A3003 RMK A01 T01070083  RH  085%=      5-min Rain = 0
KVA1 221048Z 25005KT 11/08 A3003 RMK A01 T01070083  RH  085%=      5-min Rain = 0
KVA1 221049Z 26006KT 11/08 A3003 RMK A01 T01070083  RH  085%=      5-min Rain = 0
KVA1 221050Z 25006KT 11/08 A3003 RMK A01 T01070083  RH  085%=      5-min Rain = 0
KVA1 221051Z 26005KT 11/08 A3003 RMK A01 T01070083  RH  085%=      5-min Rain = 0
KVA1 221052Z 25005KT 11/08 A3003 RMK A01 T01070083  RH  085%=      5-min Rain = 0
KVA1 221053Z 25005KT 11/08 A3003 RMK A01 T01070083  RH  085%=      5-min Rain = 0
KVA1 221054Z 25005KT 11/08 A3003 RMK A01 T01070083  RH  085%=      5-min Rain = 0
KVA1 221055Z 25006KT 11/08 A3003 RMK A01 T01070084  RH  085%=      5-min Rain = 0
KVA1 221056Z 25006KT 11/08 A3003 RMK A01 T01070084  RH  086%=      5-min Rain = 0
KVA1 221057Z 25005KT 11/08 A3003 RMK A01 T01070084  RH  086%=      5-min Rain = 0
KVA1 221058Z 25005KT 11/08 A3003 RMK A01 T01070084  RH  086%=      5-min Rain = 0
KVA1 221059Z 24005KT 11/09 A3003 RMK A01 T01070085  RH  086%=      5-min Rain = 0
KVA1 221100Z 24005KT 11/09 A3002 RMK A01 T01070085  RH  086%=      5-min Rain = 0
KVA1 221101Z 24005KT 11/09 A3002 RMK A01 T01070085  RH  086%=      5-min Rain = 0
KVA1 221102Z 24005KT 11/09 A3002 RMK A01 T01070085  RH  086%=      5-min Rain = 0
KVA1 221103Z 24005KT 11/09 A3002 RMK A01 T01070086  RH  087%=      5-min Rain = 0
KVA1 221104Z 24004KT 11/09 A3002 RMK A01 T01070086  RH  087%=      5-min Rain = 0
KVA1 221105Z 24004KT 11/09 A3002 RMK A01 T01070086  RH  087%=      5-min Rain = 0
KVA1 221106Z 24004KT 11/09 A3002 RMK A01 T01070086  RH  087%=      5-min Rain = 0
KVA1 221107Z 24004KT 11/09 A3002 RMK A01 T01070086  RH  087%=      5-min Rain = 0
KVA1 221108Z 24004KT 11/09 A3002 RMK A01 T01060085  RH  087%=      5-min Rain = 0
KVA1 221109Z 25005KT 11/09 A3002 RMK A01 T01060086  RH  087%=      5-min Rain = 0
KVA1 221110Z 26005KT 11/09 A3002 RMK A01 T01060086  RH  087%=      5-min Rain = 0
KVA1 221111Z 26006KT 11/09 A3002 RMK A01 T01060086  RH  087%=      5-min Rain = 0
KVA1 221112Z 26005KT 11/09 A3002 RMK A01 T01060086  RH  088%=      5-min Rain = 0
KVA1 221113Z 25006KT 11/09 A3003 RMK A01 T01060086  RH  088%=      5-min Rain = 0
KVA1 221114Z 25006KT 11/09 A3003 RMK A01 T01060087  RH  088%=      5-min Rain = 0
KVA1 221115Z 26006KT 11/09 A3003 RMK A01 T01070087  RH  088%=      5-min Rain = 0
KVA1 221116Z 25006KT 11/09 A3003 RMK A01 T01060087  RH  088%=      5-min Rain = 0
KVA1 221117Z 25006KT 11/09 A3003 RMK A01 T01060087  RH  088%=      5-min Rain = 0
KVA1 221118Z 25007KT 11/09 A3003 RMK A01 T01060087  RH  088%=      5-min Rain = 0
KVA1 221119Z 25006KT 11/09 A3003 RMK A01 T01070088  RH  088%=      5-min Rain = 0
KVA1 221120Z 25006KT 11/09 A3003 RMK A01 T01070087  RH  088%=      5-min Rain = 0
KVA1 221121Z 25005KT 11/09 A3003 RMK A01 T01070088  RH  088%=      5-min Rain = 0
KVA1 221122Z 25005KT 11/09 A3003 RMK A01 T01070088  RH  088%=      5-min Rain = 0
KVA1 221123Z 25005KT 11/09 A3003 RMK A01 T01070088  RH  088%=      5-min Rain = 0
KVA1 221124Z 25004KT 11/09 A3003 RMK A01 T01070088  RH  088%=      5-min Rain = 0
KVA1 221125Z 24005KT 11/09 A3003 RMK A01 T01080089  RH  088%=      5-min Rain = 0
KVA1 221126Z 24005KT 11/09 A3003 RMK A01 T01080089  RH  088%=      5-min Rain = 0
KVA1 221127Z 24006KT 11/09 A3003 RMK A01 T01080089  RH  088%=      5-min Rain = 0
KVA1 221128Z 23006KT 11/09 A3003 RMK A01 T01090090  RH  088%=      5-min Rain = 0
KVA1 221129Z 24006KT 11/09 A3003 RMK A01 T01100091  RH  088%=      5-min Rain = 0
KVA1 221130Z 23006KT 11/09 A3003 RMK A01 T01100091  RH  088%=      5-min Rain = 0
KVA1 221131Z 23006KT 11/09 A3003 RMK A01 T01100091  RH  088%=      5-min Rain = 0
KVA1 221132Z 23006KT 11/09 A3003 RMK A01 T01110091  RH  088%=      5-min Rain = 0
KVA1 221133Z 23006KT 11/09 A3003 RMK A01 T01110091  RH  087%=      5-min Rain = 0
KVA1 221134Z 23007KT 11/09 A3003 RMK A01 T01120092  RH  087%=      5-min Rain = 0
KVA1 221135Z 23006KT 11/09 A3003 RMK A01 T01130092  RH  087%=      5-min Rain = 0
KVA1 221136Z 23006KT 11/09 A3003 RMK A01 T01130092  RH  087%=      5-min Rain = 0
KVA1 221137Z 23006KT 11/09 A3003 RMK A01 T01130092  RH  087%=      5-min Rain = 0
KVA1 221138Z 23006KT 11/09 A3003 RMK A01 T01130092  RH  087%=      5-min Rain = 0
KVA1 221139Z 23006KT 11/09 A3003 RMK A01 T01130092  RH  087%=      5-min Rain = 0
KVA1 221140Z 23006KT 11/09 A3003 RMK A01 T01130092  RH  087%=      5-min Rain = 0
KVA1 221141Z 23006KT 11/09 A3003 RMK A01 T01130092  RH  087%=      5-min Rain = 0
KVA1 221142Z 23007KT 11/09 A3003 RMK A01 T01130092  RH  087%=      5-min Rain = 0
KVA1 221143Z 23007KT 11/09 A3003 RMK A01 T01130092  RH  087%=      5-min Rain = 0
KVA1 221144Z 23008KT 11/09 A3003 RMK A01 T01130092  RH  087%=      5-min Rain = 0
KVA1 221145Z 22008KT 11/09 A3003 RMK A01 T01130092  RH  087%=      5-min Rain = 0
KVA1 221146Z 22008KT 11/09 A3003 RMK A01 T01140092  RH  087%=      5-min Rain = 0
KVA1 221147Z 22009KT 11/09 A3003 RMK A01 T01140093  RH  087%=      5-min Rain = 0
KVA1 221148Z 22008KT 12/09 A3003 RMK A01 T01150093  RH  086%=      5-min Rain = 0
KVA1 221149Z 22007KT 12/09 A3003 RMK A01 T01160093  RH  086%=      5-min Rain = 0
KVA1 221150Z 22006KT 12/09 A3003 RMK A01 T01160093  RH  086%=      5-min Rain = 0
KVA1 221151Z 22006KT 12/09 A3003 RMK A01 T01160093  RH  085%=      5-min Rain = 0
KVA1 221152Z 22007KT 12/09 A3003 RMK A01 T01160093  RH  086%=      5-min Rain = 0
KVA1 221153Z 23007KT 12/09 A3003 RMK A01 T01160093  RH  086%=      5-min Rain = 0
KVA1 221154Z 23007KT 12/09 A3003 RMK A01 T01160093  RH  086%=      5-min Rain = 0
KVA1 221155Z 22007KT 12/09 A3003 RMK A01 T01160093  RH  085%=      5-min Rain = 0
KVA1 221156Z 22007KT 12/09 A3003 RMK A01 T01170093  RH  086%=      5-min Rain = 0
KVA1 221157Z 22006KT 12/09 A3003 RMK A01 T01170093  RH  085%=      5-min Rain = 0
KVA1 221158Z 21007KT 12/09 A3003 RMK A01 T01170093  RH  085%=      5-min Rain = 0
KVA1 221159Z 22006KT 12/09 A3003 RMK A01 T01170093  RH  085%=      5-min Rain = 0
KVA1 221200Z 22005KT 12/09 A3003 RMK A01 T01170092  RH  085%=      5-min Rain = 0
KVA1 221201Z 22006KT 12/09 A3003 RMK A01 T01170092  RH  085%=      5-min Rain = 0
KVA1 221202Z 22005KT 12/09 A3003 RMK A01 T01170093  RH  085%=      5-min Rain = 0
KVA1 221203Z 22005KT 12/09 A3003 RMK A01 T01160092  RH  085%=      5-min Rain = 0
KVA1 221204Z 22005KT 12/09 A3004 RMK A01 T01160092  RH  085%=      5-min Rain = 0
KVA1 221205Z 22005KT 12/09 A3004 RMK A01 T01160092  RH  085%=      5-min Rain = 0
KVA1 221206Z 23005KT 12/09 A3004 RMK A01 T01150092  RH  085%=      5-min Rain = 0
KVA1 221207Z 22006KT 12/09 A3004 RMK A01 T01150092  RH  085%=      5-min Rain = 0
KVA1 221208Z 23005KT 12/09 A3004 RMK A01 T01150091  RH  086%=      5-min Rain = 0
KVA1 221209Z 23005KT 11/09 A3004 RMK A01 T01140091  RH  086%=      5-min Rain = 0
KVA1 221210Z 23004KT 11/09 A3004 RMK A01 T01130090  RH  086%=      5-min Rain = 0
KVA1 221211Z 22005KT 11/09 A3004 RMK A01 T01130090  RH  086%=      5-min Rain = 0
KVA1 221212Z 21005KT 11/09 A3004 RMK A01 T01120090  RH  087%=      5-min Rain = 0
KVA1 221213Z 21005KT 11/09 A3004 RMK A01 T01120091  RH  087%=      5-min Rain = 0
KVA1 221214Z 21005KT 11/09 A3004 RMK A01 T01120090  RH  086%=      5-min Rain = 0
KVA1 221215Z 22005KT 11/09 A3004 RMK A01 T01110090  RH  087%=      5-min Rain = 0
KVA1 221216Z 21005KT 11/09 A3004 RMK A01 T01110090  RH  087%=      5-min Rain = 0
KVA1 221217Z 21005KT 11/09 A3004 RMK A01 T01110090  RH  087%=      5-min Rain = 0
KVA1 221218Z 21006KT 11/09 A3003 RMK A01 T01100090  RH  087%=      5-min Rain = 0
KVA1 221219Z 22005KT 11/09 A3003 RMK A01 T01100090  RH  087%=      5-min Rain = 0
KVA1 221220Z 21005KT 11/09 A3003 RMK A01 T01100090  RH  087%=      5-min Rain = 0
KVA1 221221Z 22005KT 11/09 A3003 RMK A01 T01090090  RH  088%=      5-min Rain = 0
KVA1 221222Z 22005KT 11/09 A3003 RMK A01 T01090090  RH  088%=      5-min Rain = 0
KVA1 221223Z 22006KT 11/09 A3003 RMK A01 T01090089  RH  088%=      5-min Rain = 0
KVA1 221224Z 22005KT 11/09 A3003 RMK A01 T01080089  RH  088%=      5-min Rain = 0
KVA1 221225Z 22005KT 11/09 A3003 RMK A01 T01070088  RH  088%=      5-min Rain = 0
KVA1 221226Z 22005KT 11/09 A3004 RMK A01 T01080089  RH  088%=      5-min Rain = 0
KVA1 221227Z 22005KT 11/09 A3004 RMK A01 T01070089  RH  088%=      5-min Rain = 0
KVA1 221228Z 22005KT 11/09 A3004 RMK A01 T01080089  RH  088%=      5-min Rain = 0
KVA1 221229Z 22004KT 11/09 A3004 RMK A01 T01080089  RH  088%=      5-min Rain = 0
KVA1 221230Z 22004KT 11/09 A3004 RMK A01 T01080089  RH  088%=      5-min Rain = 0
KVA1 221231Z 22004KT 11/09 A3004 RMK A01 T01080088  RH  088%=      5-min Rain = 0
KVA1 221232Z 23004KT 11/09 A3004 RMK A01 T01080088  RH  088%=      5-min Rain = 0
KVA1 221233Z 23004KT 11/09 A3004 RMK A01 T01070087  RH  088%=      5-min Rain = 0
KVA1 221234Z 24004KT 11/09 A3004 RMK A01 T01060087  RH  088%=      5-min Rain = 0
KVA1 221235Z 24004KT 10/09 A3004 RMK A01 T01040085  RH  088%=      5-min Rain = 0
KVA1 221236Z 24005KT 10/09 A3004 RMK A01 T01030085  RH  088%=      5-min Rain = 0
KVA1 221237Z 24005KT 10/08 A3004 RMK A01 T01020084  RH  089%=      5-min Rain = 0
KVA1 221238Z 25005KT 10/08 A3004 RMK A01 T01010083  RH  089%=      5-min Rain = 0
KVA1 221239Z 25005KT 10/08 A3004 RMK A01 T01000083  RH  089%=      5-min Rain = 0
KVA1 221240Z 25006KT 10/08 A3004 RMK A01 T00990082  RH  089%=      5-min Rain = 0
KVA1 221241Z 25006KT 10/08 A3004 RMK A01 T00980082  RH  090%=      5-min Rain = 0
KVA1 221242Z 25006KT 10/08 A3004 RMK A01 T00970082  RH  090%=      5-min Rain = 0
KVA1 221243Z 25006KT 10/08 A3004 RMK A01 T00970083  RH  091%=      5-min Rain = 0
KVA1 221244Z 25006KT 10/08 A3004 RMK A01 T00970083  RH  091%=      5-min Rain = 0
KVA1 221245Z 25007KT 10/08 A3004 RMK A01 T00970084  RH  091%=      5-min Rain = 0
KVA1 221246Z 25007KT 10/08 A3004 RMK A01 T00980084  RH  091%=      5-min Rain = 0
KVA1 221247Z 26006KT 10/08 A3004 RMK A01 T00980084  RH  091%=      5-min Rain = 0
KVA1 221248Z 26006KT 10/08 A3004 RMK A01 T00980084  RH  091%=      5-min Rain = 0
KVA1 221249Z 26006KT 10/09 A3004 RMK A01 T00980085  RH  091%=      5-min Rain = 0
KVA1 221250Z 26006KT 10/09 A3004 RMK A01 T00980085  RH  091%=      5-min Rain = 0
KVA1 221251Z 26006KT 10/09 A3004 RMK A01 T00980085  RH  091%=      5-min Rain = 0
KVA1 221252Z 26006KT 10/09 A3005 RMK A01 T00980085  RH  091%=      5-min Rain = 0
KVA1 221253Z 26006KT 10/09 A3005 RMK A01 T00980085  RH  091%=      5-min Rain = 0
KVA1 221254Z 26006KT 10/09 A3005 RMK A01 T00980085  RH  091%=      5-min Rain = 0
KVA1 221255Z 26005KT 10/08 A3005 RMK A01 T00980084  RH  091%=      5-min Rain = 0
KVA1 221256Z 26005KT 10/09 A3005 RMK A01 T00990085  RH  091%=      5-min Rain = 0
KVA1 221257Z 26005KT 10/08 A3005 RMK A01 T00980084  RH  091%=      5-min Rain = 0
KVA1 221258Z 26005KT 10/09 A3005 RMK A01 T00980085  RH  091%=      5-min Rain = 0
KVA1 221259Z 25005KT 10/09 A3005 RMK A01 T00990085  RH  091%=      5-min Rain = 0
KVA1 221300Z 25005KT 10/09 A3005 RMK A01 T00990086  RH  091%=      5-min Rain = 0
KVA1 221301Z 24005KT 10/09 A3005 RMK A01 T00990086  RH  091%=      5-min Rain = 0
KVA1 221302Z 23005KT 10/09 A3005 RMK A01 T01000086  RH  091%=      5-min Rain = 0
KVA1 221303Z 23005KT 10/09 A3004 RMK A01 T01000086  RH  091%=      5-min Rain = 0
KVA1 221304Z 23004KT 10/09 A3004 RMK A01 T01020088  RH  091%=      5-min Rain = 0
KVA1 221305Z 23004KT 10/09 A3004 RMK A01 T01020088  RH  091%=      5-min Rain = 0
KVA1 221306Z 22005KT 10/09 A3004 RMK A01 T01030088  RH  090%=      5-min Rain = 0
KVA1 221307Z 23004KT 10/09 A3004 RMK A01 T01040088  RH  090%=      5-min Rain = 0
KVA1 221308Z 24004KT 11/09 A3005 RMK A01 T01050088  RH  090%=      5-min Rain = 0
KVA1 221309Z 26005KT 11/09 A3005 RMK A01 T01050088  RH  089%=      5-min Rain = 0
KVA1 221310Z 26005KT 10/09 A3005 RMK A01 T01040086  RH  089%=      5-min Rain = 0
KVA1 221311Z 26005KT 10/09 A3005 RMK A01 T01030086  RH  089%=      5-min Rain = 0
KVA1 221312Z 27006KT 10/09 A3005 RMK A01 T01030086  RH  089%=      5-min Rain = 0
KVA1 221313Z 25005KT 10/09 A3005 RMK A01 T01030087  RH  090%=      5-min Rain = 0
KVA1 221314Z 26005KT 10/09 A3005 RMK A01 T01040088  RH  090%=      5-min Rain = 0
KVA1 221315Z 26006KT 11/09 A3005 RMK A01 T01050087  RH  089%=      5-min Rain = 0
KVA1 221316Z 26006KT 11/09 A3005 RMK A01 T01050087  RH  089%=      5-min Rain = 0
KVA1 221317Z 26006KT 11/09 A3005 RMK A01 T01050087  RH  089%=      5-min Rain = 0
KVA1 221318Z 25004KT 11/09 A3005 RMK A01 T01050087  RH  089%=      5-min Rain = 0
KVA1 221319Z 25006KT 11/09 A3005 RMK A01 T01050087  RH  089%=      5-min Rain = 0
KVA1 221320Z 25004KT 10/09 A3005 RMK A01 T01040086  RH  089%=      5-min Rain = 0
KVA1 221321Z 24004KT 10/09 A3005 RMK A01 T01040087  RH  089%=      5-min Rain = 0
KVA1 221322Z 25005KT 10/09 A3005 RMK A01 T01040087  RH  089%=      5-min Rain = 0
KVA1 221323Z 25005KT 10/09 A3005 RMK A01 T01040087  RH  089%=      5-min Rain = 0
KVA1 221324Z 25005KT 10/09 A3005 RMK A01 T01040086  RH  089%=      5-min Rain = 0
KVA1 221325Z 25004KT 10/09 A3006 RMK A01 T01040086  RH  089%=      5-min Rain = 0
KVA1 221326Z 25005KT 10/09 A3006 RMK A01 T01040087  RH  089%=      5-min Rain = 0
KVA1 221327Z 25005KT 10/09 A3006 RMK A01 T01040088  RH  090%=      5-min Rain = 0
KVA1 221328Z 26005KT 11/09 A3006 RMK A01 T01050088  RH  089%=      5-min Rain = 0
KVA1 221329Z 26005KT 11/09 A3006 RMK A01 T01050087  RH  088%=      5-min Rain = 0
KVA1 221330Z 26005KT 11/09 A3006 RMK A01 T01050087  RH  088%=      5-min Rain = 0
KVA1 221331Z 27005KT 11/09 A3006 RMK A01 T01050086  RH  088%=      5-min Rain = 0
KVA1 221332Z 27005KT 10/09 A3006 RMK A01 T01040086  RH  088%=      5-min Rain = 0
KVA1 221333Z 27005KT 10/09 A3006 RMK A01 T01040086  RH  089%=      5-min Rain = 0
KVA1 221334Z 27005KT 10/09 A3006 RMK A01 T01040087  RH  089%=      5-min Rain = 0
KVA1 221335Z 27007KT 11/09 A3006 RMK A01 T01050087  RH  089%=      5-min Rain = 0
KVA1 221336Z 27005KT 11/09 A3006 RMK A01 T01060089  RH  089%=      5-min Rain = 0
KVA1 221337Z 28006KT 11/09 A3006 RMK A01 T01070088  RH  088%=      5-min Rain = 0
KVA1 221338Z 27005KT 11/09 A3006 RMK A01 T01070087  RH  088%=      5-min Rain = 0
KVA1 221339Z 28005KT 11/09 A3006 RMK A01 T01060087  RH  088%=      5-min Rain = 0
KVA1 221340Z 28006KT 11/09 A3006 RMK A01 T01060086  RH  088%=      5-min Rain = 0
KVA1 221341Z 28005KT 11/09 A3006 RMK A01 T01060087  RH  088%=      5-min Rain = 0
KVA1 221342Z 28005KT 11/09 A3007 RMK A01 T01060087  RH  088%=      5-min Rain = 0
KVA1 221343Z 27004KT 11/09 A3007 RMK A01 T01060087  RH  088%=      5-min Rain = 0
KVA1 221344Z 26004KT 11/09 A3007 RMK A01 T01060087  RH  088%=      5-min Rain = 0
KVA1 221345Z 27004KT 11/09 A3007 RMK A01 T01060086  RH  088%=      5-min Rain = 0
KVA1 221346Z 28004KT 11/09 A3007 RMK A01 T01060087  RH  088%=      5-min Rain = 0
KVA1 221347Z 27003KT 11/09 A3007 RMK A01 T01070087  RH  088%=      5-min Rain = 0
KVA1 221348Z 26003KT 11/09 A3007 RMK A01 T01070087  RH  087%=      5-min Rain = 0
KVA1 221349Z 27003KT 11/09 A3007 RMK A01 T01070087  RH  087%=      5-min Rain = 0
KVA1 221350Z 26003KT 11/09 A3006 RMK A01 T01070087  RH  087%=      5-min Rain = 0
KVA1 221351Z 25001KT 11/09 A3006 RMK A01 T01080087  RH  087%=      5-min Rain = 0
KVA1 221352Z 26002KT 11/09 A3006 RMK A01 T01090087  RH  087%=      5-min Rain = 0
KVA1 221353Z 26002KT 11/09 A3006 RMK A01 T01090088  RH  086%=      5-min Rain = 0
KVA1 221354Z 25001KT 11/09 A3006 RMK A01 T01100088  RH  086%=      5-min Rain = 0
KVA1 221355Z 22000KT 11/09 A3006 RMK A01 T01110088  RH  086%=      5-min Rain = 0
KVA1 221356Z 23001KT 11/09 A3006 RMK A01 T01120089  RH  086%=      5-min Rain = 0
KVA1 221357Z 24001KT 11/09 A3006 RMK A01 T01140090  RH  085%=      5-min Rain = 0
KVA1 221358Z 18001KT 12/09 A3006 RMK A01 T01150090  RH  085%=      5-min Rain = 0
KVA1 221359Z 20002KT 12/09 A3006 RMK A01 T01160090  RH  084%=      5-min Rain = 0
KVA1 221400Z 19002KT 12/09 A3006 RMK A01 T01170090  RH  083%=      5-min Rain = 0
KVA1 221401Z 19001KT 12/09 A3006 RMK A01 T01180090  RH  083%=      5-min Rain = 0
KVA1 221402Z 20000KT 12/09 A3006 RMK A01 T01200090  RH  082%=      5-min Rain = 0
KVA1 221403Z 20001KT 12/09 A3006 RMK A01 T01200090  RH  082%=      5-min Rain = 0
KVA1 221404Z 21001KT 12/09 A3006 RMK A01 T01210090  RH  081%=      5-min Rain = 0
KVA1 221405Z 22002KT 12/09 A3006 RMK A01 T01220090  RH  081%=      5-min Rain = 0
KVA1 221406Z 25002KT 12/09 A3006 RMK A01 T01230090  RH  080%=      5-min Rain = 0
KVA1 221407Z 25002KT 12/09 A3006 RMK A01 T01230090  RH  080%=      5-min Rain = 0
KVA1 221408Z 26003KT 12/09 A3007 RMK A01 T01240091  RH  080%=      5-min Rain = 0
KVA1 221409Z 25004KT 13/09 A3007 RMK A01 T01250091  RH  080%=      5-min Rain = 0
KVA1 221410Z 24003KT 13/09 A3007 RMK A01 T01260091  RH  079%=      5-min Rain = 0
KVA1 221411Z 24003KT 13/09 A3007 RMK A01 T01270091  RH  079%=      5-min Rain = 0
KVA1 221412Z 22003KT 13/09 A3007 RMK A01 T01270091  RH  079%=      5-min Rain = 0
KVA1 221413Z 21001KT 13/09 A3007 RMK A01 T01280091  RH  078%=      5-min Rain = 0
KVA1 221414Z 24001KT 13/09 A3007 RMK A01 T01280091  RH  078%=      5-min Rain = 0
KVA1 221415Z 23003KT 13/09 A3007 RMK A01 T01290091  RH  078%=      5-min Rain = 0
KVA1 221416Z 23004KT 13/09 A3007 RMK A01 T01290091  RH  077%=      5-min Rain = 0
KVA1 221417Z 23003KT 13/09 A3007 RMK A01 T01300090  RH  077%=      5-min Rain = 0
KVA1 221418Z 21003KT 13/09 A3007 RMK A01 T01300091  RH  077%=      5-min Rain = 0
KVA1 221419Z 22003KT 13/09 A3007 RMK A01 T01300092  RH  078%=      5-min Rain = 0
KVA1 221420Z 22004KT 13/09 A3007 RMK A01 T01300091  RH  077%=      5-min Rain = 0
KVA1 221421Z 22003KT 13/09 A3007 RMK A01 T01310091  RH  077%=      5-min Rain = 0
KVA1 221422Z 21003KT 13/09 A3007 RMK A01 T01310092  RH  077%=      5-min Rain = 0
KVA1 221423Z 22004KT 13/09 A3007 RMK A01 T01330092  RH  076%=      5-min Rain = 0
KVA1 221424Z 21002KT 13/09 A3007 RMK A01 T01330092  RH  076%=      5-min Rain = 0
KVA1 221425Z 25004KT 13/09 A3007 RMK A01 T01330092  RH  076%=      5-min Rain = 0
KVA1 221426Z 25004KT 13/09 A3007 RMK A01 T01340092  RH  076%=      5-min Rain = 0
KVA1 221427Z 24005KT 14/09 A3007 RMK A01 T01350092  RH  075%=      5-min Rain = 0
KVA1 221428Z 25004KT 14/09 A3007 RMK A01 T01350092  RH  075%=      5-min Rain = 0
KVA1 221429Z 24004KT 14/09 A3007 RMK A01 T01360092  RH  075%=      5-min Rain = 0
KVA1 221430Z 24005KT 14/09 A3007 RMK A01 T01360093  RH  075%=      5-min Rain = 0
KVA1 221431Z 24004KT 14/09 A3007 RMK A01 T01370093  RH  074%=      5-min Rain = 0
KVA1 221432Z 24005KT 14/09 A3008 RMK A01 T01390094  RH  074%=      5-min Rain = 0
KVA1 221433Z 23006KT 14/09 A3008 RMK A01 T01400094  RH  074%=      5-min Rain = 0
KVA1 221434Z 20008KT 14/09 A3008 RMK A01 T01410093  RH  073%=      5-min Rain = 0
KVA1 221435Z 20007KT 14/09 A3008 RMK A01 T01410093  RH  073%=      5-min Rain = 0
KVA1 221436Z 21006KT 14/09 A3008 RMK A01 T01400094  RH  073%=      5-min Rain = 0
KVA1 221437Z 22008KT 14/09 A3008 RMK A01 T01410094  RH  073%=      5-min Rain = 0
KVA1 221438Z 21006KT 14/09 A3008 RMK A01 T01410093  RH  073%=      5-min Rain = 0
KVA1 221439Z 21006KT 14/09 A3008 RMK A01 T01410094  RH  073%=      5-min Rain = 0
KVA1 221440Z 20005KT 14/09 A3008 RMK A01 T01420094  RH  073%=      5-min Rain = 0
KVA1 221441Z 20007KT 14/09 A3008 RMK A01 T01430094  RH  072%=      5-min Rain = 0
KVA1 221442Z 20008KT 14/09 A3008 RMK A01 T01440094  RH  072%=      5-min Rain = 0
KVA1 221443Z 20006KT 14/09 A3008 RMK A01 T01420093  RH  072%=      5-min Rain = 0
KVA1 221444Z 20007KT 14/09 A3008 RMK A01 T01420094  RH  073%=      5-min Rain = 0
KVA1 221445Z 20007KT 14/09 A3008 RMK A01 T01430094  RH  073%=      5-min Rain = 0
KVA1 221446Z 19007KT 14/09 A3008 RMK A01 T01430094  RH  072%=      5-min Rain = 0
KVA1 221447Z 20007KT 14/09 A3008 RMK A01 T01440094  RH  072%=      5-min Rain = 0
KVA1 221448Z 19007KT 14/10 A3008 RMK A01 T01440095  RH  072%=      5-min Rain = 0
KVA1 221449Z 18008KT 15/10 A3008 RMK A01 T01460095  RH  072%=      5-min Rain = 0
KVA1 221450Z 19007KT 15/09 A3008 RMK A01 T01460094  RH  071%=      5-min Rain = 0
KVA1 221451Z 20008KT 15/09 A3008 RMK A01 T01460094  RH  071%=      5-min Rain = 0
KVA1 221452Z 20008KT 15/09 A3008 RMK A01 T01460094  RH  071%=      5-min Rain = 0
KVA1 221453Z 20007KT 15/09 A3008 RMK A01 T01460094  RH  071%=      5-min Rain = 0
KVA1 221454Z 18007KT 15/10 A3008 RMK A01 T01470095  RH  071%=      5-min Rain = 0
KVA1 221455Z 19008KT 15/10 A3008 RMK A01 T01490095  RH  070%=      5-min Rain = 0
KVA1 221456Z 19011KT 15/09 A3008 RMK A01 T01490094  RH  070%=      5-min Rain = 0
KVA1 221457Z 18009KT 15/09 A3008 RMK A01 T01480093  RH  070%=      5-min Rain = 0
KVA1 221458Z 18009KT 15/10 A3008 RMK A01 T01480095  RH  070%=      5-min Rain = 0
KVA1 221459Z 18010KT 15/09 A3008 RMK A01 T01490094  RH  070%=      5-min Rain = 0
KVA1 221500Z 18009KT 15/09 A3008 RMK A01 T01490094  RH  070%=      5-min Rain = 0
KVA1 221501Z 18011KT 15/09 A3008 RMK A01 T01500094  RH  069%=      5-min Rain = 0
KVA1 221502Z 18011KT 15/10 A3008 RMK A01 T01500095  RH  070%=      5-min Rain = 0
KVA1 221503Z 18010KT 15/10 A3008 RMK A01 T01500096  RH  070%=      5-min Rain = 0
KVA1 221504Z 18012KT 15/10 A3008 RMK A01 T01520096  RH  069%=      5-min Rain = 0
KVA1 221505Z 18011KT 15/10 A3008 RMK A01 T01530095  RH  068%=      5-min Rain = 0
KVA1 221506Z 18010KT 15/10 A3008 RMK A01 T01530095  RH  068%=      5-min Rain = 0
KVA1 221507Z 18009KT 15/10 A3008 RMK A01 T01540096  RH  069%=      5-min Rain = 0
KVA1 221508Z 18011KT 15/10 A3008 RMK A01 T01540096  RH  068%=      5-min Rain = 0
KVA1 221509Z 18012KT 16/10 A3008 RMK A01 T01550096  RH  068%=      5-min Rain = 0
KVA1 221510Z 17012KT 16/10 A3008 RMK A01 T01550096  RH  068%=      5-min Rain = 0
KVA1 221511Z 16010KT 16/10 A3008 RMK A01 T01550096  RH  068%=      5-min Rain = 0
KVA1 221512Z 18009KT 16/10 A3008 RMK A01 T01550096  RH  068%=      5-min Rain = 0
KVA1 221513Z 18009G14KT 16/10 A3008 RMK A01 T01570096  RH  067%=      5-min Rain = 0
KVA1 221514Z 18015KT 16/10 A3008 RMK A01 T01590096  RH  066%=      5-min Rain = 0
KVA1 221515Z 18014KT 16/09 A3008 RMK A01 T01590094  RH  065%=      5-min Rain = 0
KVA1 221516Z 18012KT 16/10 A3008 RMK A01 T01590095  RH  066%=      5-min Rain = 0
KVA1 221517Z 18012KT 16/10 A3008 RMK A01 T01600095  RH  065%=      5-min Rain = 0
KVA1 221518Z 18012KT 16/10 A3008 RMK A01 T01590095  RH  065%=      5-min Rain = 0
KVA1 221519Z 17013KT 16/09 A3008 RMK A01 T01600094  RH  065%=      5-min Rain = 0
KVA1 221520Z 18011KT 16/10 A3008 RMK A01 T01600095  RH  065%=      5-min Rain = 0
KVA1 221521Z 18014KT 16/10 A3008 RMK A01 T01620095  RH  065%=      5-min Rain = 0
KVA1 221522Z 19014KT 16/10 A3008 RMK A01 T01620095  RH  064%=      5-min Rain = 0
KVA1 221523Z 18014KT 16/10 A3007 RMK A01 T01610095  RH  065%=      5-min Rain = 0
KVA1 221524Z 19014KT 16/10 A3008 RMK A01 T01600095  RH  065%=      5-min Rain = 0
KVA1 221525Z 18014KT 16/10 A3008 RMK A01 T01610095  RH  065%=      5-min Rain = 0
KVA1 221526Z 17014KT 16/09 A3008 RMK A01 T01610094  RH  065%=      5-min Rain = 0
KVA1 221527Z 18014KT 16/09 A3008 RMK A01 T01620094  RH  064%=      5-min Rain = 0
KVA1 221528Z 17014KT 16/09 A3008 RMK A01 T01620094  RH  064%=      5-min Rain = 0
KVA1 221529Z 19013KT 16/10 A3008 RMK A01 T01620095  RH  064%=      5-min Rain = 0
KVA1 221530Z 18013KT 16/10 A3008 RMK A01 T01620095  RH  064%=      5-min Rain = 0
KVA1 221531Z 18013KT 16/10 A3007 RMK A01 T01620096  RH  065%=      5-min Rain = 0
KVA1 221532Z 17012KT 16/10 A3008 RMK A01 T01630096  RH  064%=      5-min Rain = 0
KVA1 221533Z 18013KT 16/10 A3007 RMK A01 T01640096  RH  064%=      5-min Rain = 0
KVA1 221534Z 18013KT 16/10 A3007 RMK A01 T01640096  RH  064%=      5-min Rain = 0
KVA1 221535Z 18012KT 16/10 A3008 RMK A01 T01640096  RH  064%=      5-min Rain = 0
KVA1 221536Z 17009KT 16/10 A3007 RMK A01 T01640096  RH  064%=      5-min Rain = 0
KVA1 221537Z 17012KT 17/10 A3007 RMK A01 T01650096  RH  064%=      5-min Rain = 0
KVA1 221538Z 19010KT 17/10 A3007 RMK A01 T01660097  RH  063%=      5-min Rain = 0
KVA1 221539Z 19009KT 17/10 A3007 RMK A01 T01670097  RH  063%=      5-min Rain = 0
KVA1 221540Z 18010KT 17/10 A3008 RMK A01 T01680097  RH  063%=      5-min Rain = 0
KVA1 221541Z 17009KT 17/10 A3008 RMK A01 T01680097  RH  063%=      5-min Rain = 0
KVA1 221542Z 17011KT 17/10 A3008 RMK A01 T01690097  RH  062%=      5-min Rain = 0
KVA1 221543Z 17011KT 17/10 A3007 RMK A01 T01690096  RH  062%=      5-min Rain = 0
KVA1 221544Z 18012KT 17/10 A3007 RMK A01 T01690097  RH  062%=      5-min Rain = 0
KVA1 221545Z 20009KT 17/10 A3008 RMK A01 T01700097  RH  062%=      5-min Rain = 0
KVA1 221546Z 19007KT 17/10 A3008 RMK A01 T01700097  RH  062%=      5-min Rain = 0
KVA1 221547Z 19007KT 17/10 A3008 RMK A01 T01690097  RH  062%=      5-min Rain = 0
KVA1 221548Z 18006G11KT 17/10 A3008 RMK A01 T01690096  RH  062%=      5-min Rain = 0
KVA1 221549Z 19008KT 17/10 A3008 RMK A01 T01690098  RH  063%=      5-min Rain = 0
KVA1 221550Z 18006KT 17/10 A3008 RMK A01 T01700097  RH  062%=      5-min Rain = 0
KVA1 221551Z 21004KT 17/10 A3007 RMK A01 T01690096  RH  062%=      5-min Rain = 0
KVA1 221552Z 18009KT 17/10 A3007 RMK A01 T01700098  RH  063%=      5-min Rain = 0
KVA1 221553Z 18007KT 17/10 A3007 RMK A01 T01720098  RH  062%=      5-min Rain = 0
KVA1 221554Z 19010KT 17/10 A3007 RMK A01 T01710097  RH  061%=      5-min Rain = 0
KVA1 221555Z 19009KT 17/10 A3007 RMK A01 T01700097  RH  062%=      5-min Rain = 0
KVA1 221556Z 18006KT 17/10 A3007 RMK A01 T01690097  RH  062%=      5-min Rain = 0
KVA1 221557Z 18007KT 17/10 A3007 RMK A01 T01690097  RH  063%=      5-min Rain = 0
KVA1 221558Z 18008KT 17/10 A3007 RMK A01 T01700097  RH  062%=      5-min Rain = 0
KVA1 221559Z 18007KT 17/10 A3007 RMK A01 T01700097  RH  062%=      5-min Rain = 0
KVA1 221600Z 18009KT 17/10 A3007 RMK A01 T01700097  RH  062%=      5-min Rain = 0
KVA1 221601Z 17006KT 17/10 A3007 RMK A01 T01690097  RH  062%=      5-min Rain = 0
KVA1 221602Z 18010KT 17/10 A3007 RMK A01 T01700098  RH  062%=      5-min Rain = 0
KVA1 221603Z 18010KT 17/10 A3007 RMK A01 T01730098  RH  061%=      5-min Rain = 0
KVA1 221604Z 16006KT 17/10 A3007 RMK A01 T01730097  RH  061%=      5-min Rain = 0
KVA1 221605Z 19007KT 17/10 A3007 RMK A01 T01740098  RH  061%=      5-min Rain = 0
KVA1 221606Z 18007KT 18/10 A3007 RMK A01 T01750098  RH  061%=      5-min Rain = 0
KVA1 221607Z 18007KT 18/10 A3007 RMK A01 T01750098  RH  061%=      5-min Rain = 0
KVA1 221608Z 17009KT 18/10 A3007 RMK A01 T01750099  RH  061%=      5-min Rain = 0
KVA1 221609Z 17008KT 18/10 A3007 RMK A01 T01790100  RH  060%=      5-min Rain = 0
KVA1 221610Z 18009KT 18/10 A3007 RMK A01 T01790099  RH  059%=      5-min Rain = 0
KVA1 221611Z 18009KT 18/10 A3007 RMK A01 T01790099  RH  060%=      5-min Rain = 0
KVA1 221612Z 18009KT 18/10 A3007 RMK A01 T01800100  RH  059%=      5-min Rain = 0
KVA1 221613Z 19008KT 18/10 A3007 RMK A01 T01800100  RH  059%=      5-min Rain = 0
KVA1 221614Z 17008KT 18/10 A3007 RMK A01 T01800099  RH  059%=      5-min Rain = 0
KVA1 221615Z 18009KT 18/10 A3007 RMK A01 T01780099  RH  060%=      5-min Rain = 0
KVA1 221616Z 19010KT 18/10 A3007 RMK A01 T01770099  RH  060%=      5-min Rain = 0
KVA1 221617Z 18010KT 18/10 A3007 RMK A01 T01770099  RH  060%=      5-min Rain = 0
KVA1 221618Z 19009KT 17/10 A3007 RMK A01 T01740098  RH  061%=      5-min Rain = 0
KVA1 221619Z 19008KT 17/10 A3007 RMK A01 T01720098  RH  062%=      5-min Rain = 0
KVA1 221620Z 20008KT 17/10 A3007 RMK A01 T01720098  RH  062%=      5-min Rain = 0
KVA1 221621Z 20006KT 17/10 A3007 RMK A01 T01720098  RH  062%=      5-min Rain = 0
KVA1 221622Z 19003KT 17/10 A3007 RMK A01 T01710099  RH  062%=      5-min Rain = 0
KVA1 221623Z 20007KT 17/10 A3007 RMK A01 T01700098  RH  062%=      5-min Rain = 0
KVA1 221624Z 20010KT 17/10 A3007 RMK A01 T01710099  RH  062%=      5-min Rain = 0
KVA1 221625Z 20008KT 17/10 A3007 RMK A01 T01710099  RH  062%=      5-min Rain = 0
KVA1 221626Z 20007KT 17/10 A3007 RMK A01 T01710098  RH  062%=      5-min Rain = 0
KVA1 221627Z 21010KT 17/10 A3007 RMK A01 T01710099  RH  062%=      5-min Rain = 0
KVA1 221628Z 21007KT 17/10 A3007 RMK A01 T01710099  RH  062%=      5-min Rain = 0
KVA1 221629Z 20006KT 17/10 A3007 RMK A01 T01700098  RH  063%=      5-min Rain = 0
KVA1 221630Z 18005KT 17/10 A3007 RMK A01 T01710100  RH  063%=      5-min Rain = 0
KVA1 221631Z 18009KT 17/10 A3007 RMK A01 T01740099  RH  061%=      5-min Rain = 0
KVA1 221632Z 19007KT 18/10 A3007 RMK A01 T01760099  RH  061%=      5-min Rain = 0
KVA1 221633Z 19007KT 18/10 A3007 RMK A01 T01760099  RH  060%=      5-min Rain = 0
KVA1 221634Z 18010KT 18/10 A3007 RMK A01 T01770100  RH  060%=      5-min Rain = 0
KVA1 221635Z 17008KT 18/10 A3007 RMK A01 T01770100  RH  060%=      5-min Rain = 0
KVA1 221636Z 17010KT 18/10 A3007 RMK A01 T01780100  RH  060%=      5-min Rain = 0
KVA1 221637Z 19011KT 18/10 A3007 RMK A01 T01800101  RH  060%=      5-min Rain = 0
KVA1 221638Z 18009KT 18/10 A3007 RMK A01 T01830101  RH  059%=      5-min Rain = 0
KVA1 221639Z 18008KT 18/10 A3007 RMK A01 T01840101  RH  058%=      5-min Rain = 0
KVA1 221640Z 16006KT 18/10 A3007 RMK A01 T01830101  RH  059%=      5-min Rain = 0
KVA1 221641Z 16007G12KT 18/10 A3007 RMK A01 T01830101  RH  058%=      5-min Rain = 0
KVA1 221642Z 17010KT 18/10 A3006 RMK A01 T01840101  RH  058%=      5-min Rain = 0
KVA1 221643Z 18006KT 18/10 A3006 RMK A01 T01840100  RH  058%=      5-min Rain = 0
KVA1 221644Z 19008KT 18/10 A3006 RMK A01 T01840100  RH  058%=      5-min Rain = 0
KVA1 221645Z 20007KT 19/10 A3006 RMK A01 T01850102  RH  058%=      5-min Rain = 0
KVA1 221646Z 19007KT 19/10 A3006 RMK A01 T01860101  RH  058%=      5-min Rain = 0
KVA1 221647Z 18007KT 19/10 A3006 RMK A01 T01850100  RH  058%=      5-min Rain = 0
KVA1 221648Z 17008KT 18/10 A3006 RMK A01 T01840101  RH  058%=      5-min Rain = 0
KVA1 221649Z 17009KT 19/10 A3006 RMK A01 T01860101  RH  058%=      5-min Rain = 0
KVA1 221650Z 18011KT 19/10 A3006 RMK A01 T01880101  RH  057%=      5-min Rain = 0
KVA1 221651Z 18011KT 19/10 A3006 RMK A01 T01890101  RH  056%=      5-min Rain = 0
KVA1 221652Z 19006KT 19/10 A3006 RMK A01 T01880100  RH  056%=      5-min Rain = 0
KVA1 221653Z 17007KT 19/10 A3006 RMK A01 T01850100  RH  058%=      5-min Rain = 0
KVA1 221654Z 20008KT 19/10 A3006 RMK A01 T01880102  RH  057%=      5-min Rain = 0
KVA1 221655Z 20006KT 19/10 A3006 RMK A01 T01920102  RH  056%=      5-min Rain = 0
KVA1 221656Z 19008KT 19/10 A3006 RMK A01 T01940103  RH  055%=      5-min Rain = 0
KVA1 221657Z 18009KT 20/10 A3006 RMK A01 T01950103  RH  055%=      5-min Rain = 0
KVA1 221658Z 19007KT 20/10 A3006 RMK A01 T01960102  RH  055%=      5-min Rain = 0
KVA1 221659Z 18006KT 20/10 A3006 RMK A01 T01960103  RH  055%=      5-min Rain = 0
KVA1 221700Z 21005KT 20/10 A3006 RMK A01 T01970102  RH  054%=      5-min Rain = 0
KVA1 221701Z 20005KT 20/10 A3006 RMK A01 T01960102  RH  055%=      5-min Rain = 0
KVA1 221702Z 19007KT 20/10 A3006 RMK A01 T01960103  RH  055%=      5-min Rain = 0
KVA1 221703Z 19008KT 20/10 A3006 RMK A01 T01970102  RH  054%=      5-min Rain = 0
KVA1 221704Z 20004KT 19/10 A3006 RMK A01 T01940100  RH  055%=      5-min Rain = 0
KVA1 221705Z 16004KT 19/10 A3006 RMK A01 T01910101  RH  056%=      5-min Rain = 0
KVA1 221706Z 18006KT 19/10 A3006 RMK A01 T01930102  RH  056%=      5-min Rain = 0
KVA1 221707Z 20006KT 20/10 A3006 RMK A01 T01960102  RH  054%=      5-min Rain = 0
KVA1 221708Z 19003KT 20/10 A3006 RMK A01 T01970101  RH  054%=      5-min Rain = 0
KVA1 221709Z 18004G15KT 20/10 A3006 RMK A01 T01960101  RH  054%=      5-min Rain = 0
KVA1 221710Z 21010G16KT 20/10 A3005 RMK A01 T01980101  RH  053%=      5-min Rain = 0
KVA1 221711Z 19009KT 20/10 A3005 RMK A01 T02010101  RH  053%=      5-min Rain = 0
KVA1 221712Z 19010KT 20/10 A3005 RMK A01 T02020101  RH  052%=      5-min Rain = 0
KVA1 221713Z 21009KT 20/10 A3005 RMK A01 T02020099  RH  051%=      5-min Rain = 0
KVA1 221714Z 20008KT 20/10 A3005 RMK A01 T02010099  RH  052%=      5-min Rain = 0
KVA1 221715Z 20007G12KT 20/10 A3005 RMK A01 T02030100  RH  052%=      5-min Rain = 0
KVA1 221716Z 21010KT 21/10 A3005 RMK A01 T02050096  RH  050%=      5-min Rain = 0
KVA1 221717Z 22007KT 21/10 A3005 RMK A01 T02050096  RH  050%=      5-min Rain = 0
KVA1 221718Z 23007KT 20/10 A3005 RMK A01 T02040097  RH  050%=      5-min Rain = 0
KVA1 221719Z 23007KT 20/10 A3005 RMK A01 T02030098  RH  051%=      5-min Rain = 0
KVA1 221720Z 20006KT 20/10 A3005 RMK A01 T02020098  RH  051%=      5-min Rain = 0
KVA1 221721Z 19005KT 20/10 A3005 RMK A01 T02040101  RH  051%=      5-min Rain = 0
KVA1 221722Z 21004KT 21/10 A3005 RMK A01 T02060100  RH  051%=      5-min Rain = 0
KVA1 221723Z 18008KT 20/10 A3005 RMK A01 T02040099  RH  051%=      5-min Rain = 0
KVA1 221724Z 19007KT 20/10 A3005 RMK A01 T02030097  RH  050%=      5-min Rain = 0
KVA1 221725Z 20006KT 20/10 A3005 RMK A01 T02020096  RH  051%=      5-min Rain = 0
KVA1 221726Z 21009KT 20/09 A3005 RMK A01 T02030090  RH  048%=      5-min Rain = 0
KVA1 221727Z 21006KT 21/09 A3005 RMK A01 T02050086  RH  047%=      5-min Rain = 0
KVA1 221728Z 22008KT 21/09 A3005 RMK A01 T02070089  RH  047%=      5-min Rain = 0
KVA1 221729Z 24008KT 21/08 A3005 RMK A01 T02090084  RH  045%=      5-min Rain = 0
KVA1 221730Z 25008KT 21/08 A3005 RMK A01 T02100078  RH  043%=      5-min Rain = 0
KVA1 221731Z 25006KT 21/08 A3005 RMK A01 T02120077  RH  042%=      5-min Rain = 0
KVA1 221732Z 26006KT 21/08 A3005 RMK A01 T02130076  RH  041%=      5-min Rain = 0
KVA1 221733Z 22007KT 21/07 A3005 RMK A01 T02130072  RH  040%=      5-min Rain = 0
KVA1 221734Z 21004KT 21/08 A3005 RMK A01 T02130082  RH  043%=      5-min Rain = 0
KVA1 221735Z 22008KT 21/08 A3005 RMK A01 T02110082  RH  043%=      5-min Rain = 0
KVA1 221736Z 21009KT 21/08 A3005 RMK A01 T02120075  RH  041%=      5-min Rain = 0
KVA1 221737Z 20008KT 21/08 A3005 RMK A01 T02110076  RH  042%=      5-min Rain = 0
KVA1 221738Z 21007KT 21/08 A3005 RMK A01 T02090081  RH  044%=      5-min Rain = 0
KVA1 221739Z 22003KT 21/08 A3005 RMK A01 T02090081  RH  044%=      5-min Rain = 0
KVA1 221740Z 23005KT 21/07 A3004 RMK A01 T02090074  RH  042%=      5-min Rain = 0
KVA1 221741Z 22005KT 21/07 A3004 RMK A01 T02090069  RH  040%=      5-min Rain = 0
KVA1 221742Z 20008KT 21/08 A3004 RMK A01 T02100076  RH  042%=      5-min Rain = 0
KVA1 221743Z 19004KT 21/08 A3004 RMK A01 T02130082  RH  043%=      5-min Rain = 0
KVA1 221744Z 21008G13KT 21/08 A3004 RMK A01 T02130079  RH  042%=      5-min Rain = 0
KVA1 221745Z 22008G13KT 21/07 A3004 RMK A01 T02120074  RH  041%=      5-min Rain = 0
KVA1 221746Z 20003KT 21/07 A3004 RMK A01 T02140072  RH  040%=      5-min Rain = 0
KVA1 221747Z 23009KT 22/08 A3004 RMK A01 T02160076  RH  040%=      5-min Rain = 0
KVA1 221748Z 21007KT 22/07 A3004 RMK A01 T02170070  RH  039%=      5-min Rain = 0
KVA1 221749Z 21009KT 22/07 A3004 RMK A01 T02170068  RH  038%=      5-min Rain = 0
KVA1 221750Z 22009KT 22/07 A3004 RMK A01 T02160068  RH  038%=      5-min Rain = 0
KVA1 221751Z 24006KT 22/07 A3004 RMK A01 T02150067  RH  038%=      5-min Rain = 0
KVA1 221752Z 22004KT 21/06 A3004 RMK A01 T02140060  RH  037%=      5-min Rain = 0
KVA1 221753Z 21005KT 21/06 A3004 RMK A01 T02120064  RH  038%=      5-min Rain = 0
KVA1 221754Z 20005KT 21/07 A3004 RMK A01 T02120067  RH  039%=      5-min Rain = 0
KVA1 221755Z 18007KT 21/07 A3004 RMK A01 T02130073  RH  040%=      5-min Rain = 0
KVA1 221756Z 18006KT 21/08 A3004 RMK A01 T02140075  RH  041%=      5-min Rain = 0
KVA1 221757Z 21007KT 21/08 A3004 RMK A01 T02140075  RH  041%=      5-min Rain = 0
KVA1 221758Z 24008KT 21/07 A3004 RMK A01 T02140071  RH  039%=      5-min Rain = 0
KVA1 221759Z 23008KT 22/07 A3004 RMK A01 T02170069  RH  038%=      5-min Rain = 0
KVA1 221800Z 23010KT 22/06 A3004 RMK A01 T02170064  RH  037%=      5-min Rain = 0
KVA1 221801Z 25008KT 22/06 A3004 RMK A01 T02170059  RH  036%=      5-min Rain = 0
KVA1 221802Z 27005KT 21/06 A3004 RMK A01 T02140059  RH  036%=      5-min Rain = 0
KVA1 221803Z 27004KT 21/05 A3004 RMK A01 T02130054  RH  035%=      5-min Rain = 0
KVA1 221804Z 27005KT 21/05 A3004 RMK A01 T02130054  RH  035%=      5-min Rain = 0
KVA1 221805Z 24001KT 21/06 A3004 RMK A01 T02140058  RH  036%=      5-min Rain = 0
KVA1 221806Z 20004KT 22/06 A3003 RMK A01 T02160059  RH  036%=      5-min Rain = 0
KVA1 221807Z 19003KT 22/06 A3003 RMK A01 T02170062  RH  037%=      5-min Rain = 0
KVA1 221808Z 22004KT 22/06 A3003 RMK A01 T02170064  RH  037%=      5-min Rain = 0
KVA1 221809Z 21006KT 22/06 A3003 RMK A01 T02180063  RH  036%=      5-min Rain = 0
KVA1 221810Z 22006KT 22/06 A3003 RMK A01 T02180061  RH  036%=      5-min Rain = 0
KVA1 221811Z 24006KT 22/06 A3003 RMK A01 T02220063  RH  036%=      5-min Rain = 0
KVA1 221812Z 25009KT 23/07 A3003 RMK A01 T02260068  RH  036%=      5-min Rain = 0
KVA1 221813Z 28006KT 23/07 A3004 RMK A01 T02260066  RH  036%=      5-min Rain = 0
KVA1 221814Z 30006KT 22/07 A3003 RMK A01 T02210066  RH  037%=      5-min Rain = 0
KVA1 221815Z 29005KT 22/07 A3003 RMK A01 T02190068  RH  038%=      5-min Rain = 0
KVA1 221816Z 28005KT 22/07 A3003 RMK A01 T02180066  RH  037%=      5-min Rain = 0
KVA1 221817Z 21004KT 22/06 A3003 RMK A01 T02180063  RH  037%=      5-min Rain = 0
KVA1 221818Z 23002KT 22/06 A3003 RMK A01 T02180060  RH  036%=      5-min Rain = 0
KVA1 221819Z 23001KT 22/06 A3003 RMK A01 T02170060  RH  036%=      5-min Rain = 0
KVA1 221820Z 23006KT 22/06 A3003 RMK A01 T02170058  RH  036%=      5-min Rain = 0
KVA1 221821Z 25008KT 22/05 A3003 RMK A01 T02190047  RH  032%=      5-min Rain = 0
KVA1 221822Z 25006KT 22/05 A3003 RMK A01 T02230047  RH  032%=      5-min Rain = 0
KVA1 221823Z 25004KT 22/05 A3003 RMK A01 T02240047  RH  032%=      5-min Rain = 0
KVA1 221824Z 25006KT 22/06 A3003 RMK A01 T02240056  RH  033%=      5-min Rain = 0
KVA1 221825Z 26004KT 22/06 A3003 RMK A01 T02230061  RH  035%=      5-min Rain = 0
KVA1 221826Z 29001KT 22/06 A3003 RMK A01 T02200062  RH  036%=      5-min Rain = 0
KVA1 221827Z 06001KT 22/06 A3003 RMK A01 T02170062  RH  037%=      5-min Rain = 0
KVA1 221828Z 07002KT 22/06 A3003 RMK A01 T02160062  RH  037%=      5-min Rain = 0
KVA1 221829Z 06001KT 22/06 A3003 RMK A01 T02180059  RH  036%=      5-min Rain = 0
KVA1 221830Z 10001KT 22/06 A3003 RMK A01 T02180059  RH  036%=      5-min Rain = 0
KVA1 221831Z 13002KT 22/06 A3002 RMK A01 T02180059  RH  036%=      5-min Rain = 0
KVA1 221832Z 19001KT 22/06 A3002 RMK A01 T02190059  RH  035%=      5-min Rain = 0
KVA1 221833Z 19004KT 22/06 A3002 RMK A01 T02210059  RH  035%=      5-min Rain = 0
KVA1 221834Z 19005KT 22/06 A3002 RMK A01 T02230061  RH  035%=      5-min Rain = 0
KVA1 221835Z 19007KT 23/05 A3002 RMK A01 T02280048  RH  031%=      5-min Rain = 0
KVA1 221836Z 19006G11KT 23/05 A3002 RMK A01 T02290045  RH  030%=      5-min Rain = 0
KVA1 221837Z 20008KT 23/06 A3002 RMK A01 T02290055  RH  032%=      5-min Rain = 0
KVA1 221838Z 19005KT 23/06 A3002 RMK A01 T02310059  RH  033%=      5-min Rain = 0
KVA1 221839Z 20006KT 23/06 A3002 RMK A01 T02290060  RH  033%=      5-min Rain = 0
KVA1 221840Z 20012KT 23/06 A3002 RMK A01 T02290055  RH  032%=      5-min Rain = 0
KVA1 221841Z 20010G15KT 23/05 A3002 RMK A01 T02300045  RH  030%=      5-min Rain = 0
KVA1 221842Z 19010KT 23/05 A3002 RMK A01 T02310045  RH  030%=      5-min Rain = 0
KVA1 221843Z 18008KT 23/05 A3002 RMK A01 T02290046  RH  030%=      5-min Rain = 0
KVA1 221844Z 20007KT 23/05 A3002 RMK A01 T02310052  RH  031%=      5-min Rain = 0
KVA1 221845Z 19006KT 23/05 A3002 RMK A01 T02330052  RH  031%=      5-min Rain = 0
KVA1 221846Z 20006KT 23/06 A3002 RMK A01 T02320055  RH  032%=      5-min Rain = 0
KVA1 221847Z 20004KT 23/06 A3002 RMK A01 T02330055  RH  032%=      5-min Rain = 0
KVA1 221848Z 22005KT 23/05 A3002 RMK A01 T02310051  RH  031%=      5-min Rain = 0
KVA1 221849Z 22006KT 23/05 A3002 RMK A01 T02280051  RH  032%=      5-min Rain = 0
KVA1 221850Z 22010KT 23/04 A3002 RMK A01 T02310040  RH  029%=      5-min Rain = 0
KVA1 221851Z 22011KT 23/04 A3002 RMK A01 T02340037  RH  028%=      5-min Rain = 0
KVA1 221852Z 21009G15KT 24/03 A3002 RMK A01 T02370032  RH  026%=      5-min Rain = 0
KVA1 221853Z 21011KT 24/03 A3002 RMK A01 T02370034  RH  027%=      5-min Rain = 0
KVA1 221854Z 21009KT 24/04 A3002 RMK A01 T02360038  RH  028%=      5-min Rain = 0
KVA1 221855Z 22011KT 24/05 A3002 RMK A01 T02380046  RH  029%=      5-min Rain = 0
KVA1 221856Z 25004KT 23/04 A3002 RMK A01 T02320044  RH  029%=      5-min Rain = 0
KVA1 221857Z 24004KT 23/05 A3001 RMK A01 T02300047  RH  030%=      5-min Rain = 0
KVA1 221858Z 22005KT 23/04 A3001 RMK A01 T02320043  RH  029%=      5-min Rain = 0
KVA1 221859Z 21005G12KT 23/04 A3001 RMK A01 T02310041  RH  029%=      5-min Rain = 0
KVA1 221900Z 20014KT 23/05 A3001 RMK A01 T02330045  RH  030%=      5-min Rain = 0
KVA1 221901Z 19010KT 24/05 A3001 RMK A01 T02350050  RH  030%=      5-min Rain = 0
KVA1 221902Z 20010KT 24/05 A3001 RMK A01 T02360048  RH  030%=      5-min Rain = 0
KVA1 221903Z 21007KT 24/05 A3001 RMK A01 T02360046  RH  029%=      5-min Rain = 0
KVA1 221904Z 23009KT 23/05 A3001 RMK A01 T02340046  RH  029%=      5-min Rain = 0
KVA1 221905Z 21010KT 23/05 A3001 RMK A01 T02330047  RH  030%=      5-min Rain = 0
KVA1 221906Z 21013KT 24/05 A3001 RMK A01 T02360047  RH  029%=      5-min Rain = 0
KVA1 221907Z 20010KT 24/05 A3001 RMK A01 T02350045  RH  029%=      5-min Rain = 0
KVA1 221908Z 21010G15KT 24/04 A3001 RMK A01 T02350044  RH  029%=      5-min Rain = 0
KVA1 221909Z 20009KT 23/04 A3001 RMK A01 T02340044  RH  029%=      5-min Rain = 0
KVA1 221910Z 20009KT 23/05 A3001 RMK A01 T02330045  RH  029%=      5-min Rain = 0
KVA1 221911Z 21010KT 24/05 A3001 RMK A01 T02360048  RH  030%=      5-min Rain = 0
KVA1 221912Z 20010KT 24/05 A3001 RMK A01 T02390049  RH  029%=      5-min Rain = 0
KVA1 221913Z 20010KT 24/05 A3001 RMK A01 T02390047  RH  029%=      5-min Rain = 0
KVA1 221914Z 20009KT 24/05 A3001 RMK A01 T02370045  RH  029%=      5-min Rain = 0
KVA1 221915Z 21007KT 24/05 A3001 RMK A01 T02350048  RH  030%=      5-min Rain = 0
KVA1 221916Z 22006KT 23/04 A30 RMK A01 T02340044  RH  029%=      5-min Rain = 0
KVA1 221917Z 21007KT 23/04 A30 RMK A01 T02310041  RH  029%=      5-min Rain = 0
KVA1 221918Z 20004KT 23/04 A30 RMK A01 T02290041  RH  029%=      5-min Rain = 0
KVA1 221919Z 27006KT 23/04 A30 RMK A01 T02270043  RH  030%=      5-min Rain = 0
KVA1 221920Z 28006KT 23/05 A30 RMK A01 T02280048  RH  031%=      5-min Rain = 0
KVA1 221921Z 27009KT 23/05 A30 RMK A01 T02290048  RH  031%=      5-min Rain = 0
KVA1 221922Z 26009KT 23/05 A30 RMK A01 T02290050  RH  031%=      5-min Rain = 0
KVA1 221923Z 26010KT 23/05 A30 RMK A01 T02290051  RH  032%=      5-min Rain = 0
KVA1 221924Z 26010KT 23/05 A30 RMK A01 T02290054  RH  032%=      5-min Rain = 0
KVA1 221925Z 26007KT 23/06 A30 RMK A01 T02280055  RH  032%=      5-min Rain = 0
KVA1 221926Z 28006KT 23/05 A30 RMK A01 T02270054  RH  033%=      5-min Rain = 0
KVA1 221927Z 26004KT 23/05 A30 RMK A01 T02260054  RH  033%=      5-min Rain = 0
KVA1 221928Z 22009KT 23/05 A30 RMK A01 T02270048  RH  031%=      5-min Rain = 0
KVA1 221929Z 23006KT 23/04 A30 RMK A01 T02280037  RH  029%=      5-min Rain = 0
KVA1 221930Z 22006KT 23/03 A30 RMK A01 T02270034  RH  028%=      5-min Rain = 0
KVA1 221931Z 23005KT 23/03 A30 RMK A01 T02280031  RH  028%=      5-min Rain = 0
KVA1 221932Z 22004KT 23/03 A2999 RMK A01 T02280031  RH  027%=      5-min Rain = 0
KVA1 221933Z 19003KT 23/03 A2999 RMK A01 T02290031  RH  027%=      5-min Rain = 0
KVA1 221934Z 21008KT 23/03 A2999 RMK A01 T02310033  RH  027%=      5-min Rain = 0
KVA1 221935Z 22008KT 23/03 A2999 RMK A01 T02310031  RH  027%=      5-min Rain = 0
KVA1 221936Z 26007KT 23/04 A2999 RMK A01 T02300035  RH  028%=      5-min Rain = 0
KVA1 221937Z 26007KT 23/05 A2999 RMK A01 T02300049  RH  031%=      5-min Rain = 0
KVA1 221938Z 29005KT 23/05 A2999 RMK A01 T02290050  RH  031%=      5-min Rain = 0
KVA1 221939Z 28004KT 23/05 A2999 RMK A01 T02310047  RH  030%=      5-min Rain = 0
KVA1 221940Z 29002KT 23/05 A2999 RMK A01 T02300046  RH  030%=      5-min Rain = 0
KVA1 221941Z 28003KT 23/05 A2999 RMK A01 T02290045  RH  030%=      5-min Rain = 0
KVA1 221942Z 26003KT 23/04 A2999 RMK A01 T02290044  RH  030%=      5-min Rain = 0
KVA1 221943Z 26002KT 23/04 A2998 RMK A01 T02290042  RH  030%=      5-min Rain = 0
KVA1 221944Z 26004KT 23/04 A2998 RMK A01 T02300042  RH  029%=      5-min Rain = 0
KVA1 221945Z 26004KT 23/04 A2998 RMK A01 T02320041  RH  029%=      5-min Rain = 0
KVA1 221946Z 25003KT 23/04 A2998 RMK A01 T02330037  RH  028%=      5-min Rain = 0
KVA1 221947Z 21001KT 23/04 A2998 RMK A01 T02310036  RH  028%=      5-min Rain = 0
KVA1 221948Z 23005KT 23/04 A2998 RMK A01 T02300036  RH  028%=      5-min Rain = 0
KVA1 221949Z 25006KT 23/03 A2998 RMK A01 T02320032  RH  027%=      5-min Rain = 0
KVA1 221950Z 24010KT 23/03 A2998 RMK A01 T02340030  RH  026%=      5-min Rain = 0
KVA1 221951Z 25008KT 24/03 A2998 RMK A01 T02350028  RH  026%=      5-min Rain = 0
KVA1 221952Z 28006KT 23/03 A2998 RMK A01 T02340027  RH  026%=      5-min Rain = 0
KVA1 221953Z 25009KT 23/03 A2998 RMK A01 T02340028  RH  026%=      5-min Rain = 0
KVA1 221954Z 26009KT 24/03 A2998 RMK A01 T02360028  RH  026%=      5-min Rain = 0
KVA1 221955Z 26008KT 24/03 A2998 RMK A01 T02360027  RH  026%=      5-min Rain = 0
KVA1 221956Z 26007KT 24/03 A2998 RMK A01 T02350026  RH  026%=      5-min Rain = 0
KVA1 221957Z 27007KT 23/03 A2998 RMK A01 T02330026  RH  026%=      5-min Rain = 0
KVA1 221958Z 28005KT 23/03 A2998 RMK A01 T02330026  RH  026%=      5-min Rain = 0
KVA1 221959Z 28006KT 23/03 A2998 RMK A01 T02330025  RH  026%=      5-min Rain = 0
KVA1 222000Z 29006KT 24/02 A2998 RMK A01 T02350024  RH  025%=      5-min Rain = 0
KVA1 222001Z 31003KT 23/02 A2998 RMK A01 T02340019  RH  024%=      5-min Rain = 0
KVA1 222002Z 33002KT 23/02 A2997 RMK A01 T02320018  RH  024%=      5-min Rain = 0
KVA1 222003Z 04001KT 23/02 A2997 RMK A01 T02310017  RH  024%=      5-min Rain = 0
KVA1 222004Z 31005KT 23/02 A2997 RMK A01 T02330019  RH  024%=      5-min Rain = 0
KVA1 222005Z 27004KT 24/02 A2997 RMK A01 T02370020  RH  024%=      5-min Rain = 0
KVA1 222006Z 26005KT 24/02 A2997 RMK A01 T02400020  RH  024%=      5-min Rain = 0
KVA1 222007Z 23003KT 24/02 A2997 RMK A01 T02380015  RH  023%=      5-min Rain = 0
KVA1 222008Z 28003KT 24/01 A2997 RMK A01 T02370014  RH  023%=      5-min Rain = 0
KVA1 222009Z 29004KT 24/01 A2997 RMK A01 T02360012  RH  023%=      5-min Rain = 0
KVA1 222010Z 24003KT 24/01 A2997 RMK A01 T02360010  RH  023%=      5-min Rain = 0
KVA1 222011Z 23005KT 24/01 A2997 RMK A01 T02380012  RH  023%=      5-min Rain = 0
KVA1 222012Z 22005KT 24/01 A2997 RMK A01 T02380009  RH  022%=      5-min Rain = 0
KVA1 222013Z 24003KT 24/01 A2997 RMK A01 T02370010  RH  022%=      5-min Rain = 0
KVA1 222014Z 24003KT 24/01 A2997 RMK A01 T02370010  RH  023%=      5-min Rain = 0
KVA1 222015Z 25002KT 24/01 A2997 RMK A01 T02370010  RH  022%=      5-min Rain = 0
KVA1 222016Z 23007KT 24/01 A2997 RMK A01 T02380009  RH  022%=      5-min Rain = 0
KVA1 222017Z 23008KT 24/00 A2997 RMK A01 T023900-0  RH  021%=      5-min Rain = 0
KVA1 222018Z 23006KT 24/M00 A2997 RMK A01 T02411002  RH  020%=      5-min Rain = 0
KVA1 222019Z 22006KT 25/00 A2996 RMK A01 T024500-0  RH  020%=      5-min Rain = 0
KVA1 222020Z 21007KT 25/M00 A2996 RMK A01 T02481002  RH  019%=      5-min Rain = 0
KVA1 222021Z 21010KT 25/M00 A2996 RMK A01 T02481002  RH  019%=      5-min Rain = 0
KVA1 222022Z 23009KT 25/M01 A2996 RMK A01 T02451005  RH  019%=      5-min Rain = 0
KVA1 222023Z 28006KT 24/M01 A2996 RMK A01 T02391008  RH  019%=      5-min Rain = 0
KVA1 222024Z 25007KT 24/M01 A2996 RMK A01 T02381005  RH  020%=      5-min Rain = 0
KVA1 222025Z 23011KT 24/M00 A2996 RMK A01 T02411001  RH  020%=      5-min Rain = 0
KVA1 222026Z 21009G14KT 24/00 A2996 RMK A01 T024300-0  RH  020%=      5-min Rain = 0
KVA1 222027Z 22008KT 24/M00 A2996 RMK A01 T02431002  RH  020%=      5-min Rain = 0
KVA1 222028Z 20011KT 24/M00 A2996 RMK A01 T02411001  RH  020%=      5-min Rain = 0
KVA1 222029Z 23007G12KT 24/M00 A2996 RMK A01 T02401001  RH  020%=      5-min Rain = 0
KVA1 222030Z 22011KT 24/00 A2996 RMK A01 T02420002  RH  020%=      5-min Rain = 0
KVA1 222031Z 23009KT 24/00 A2996 RMK A01 T02440002  RH  020%=      5-min Rain = 0
KVA1 222032Z 21006KT 24/00 A2996 RMK A01 T02410000  RH  020%=      5-min Rain = 0
KVA1 222033Z 19005KT 24/00 A2996 RMK A01 T02410001  RH  020%=      5-min Rain = 0
KVA1 222034Z 18007KT 24/00 A2996 RMK A01 T02440002  RH  020%=      5-min Rain = 0
KVA1 222035Z 20004KT 25/00 A2996 RMK A01 T02460001  RH  020%=      5-min Rain = 0
KVA1 222036Z 25003KT 24/M00 A2996 RMK A01 T02431001  RH  020%=      5-min Rain = 0
KVA1 222037Z 24007KT 24/00 A2996 RMK A01 T024200-0  RH  020%=      5-min Rain = 0
KVA1 222038Z 25011KT 24/M00 A2996 RMK A01 T02421002  RH  020%=      5-min Rain = 0
KVA1 222039Z 25009KT 24/M01 A2996 RMK A01 T02431005  RH  019%=      5-min Rain = 0
KVA1 222040Z 27009G17KT 24/M01 A2996 RMK A01 T02421005  RH  019%=      5-min Rain = 0
KVA1 222041Z 25016G21KT 24/M00 A2995 RMK A01 T02441003  RH  020%=      5-min Rain = 0
KVA1 222042Z 25011G16KT 25/M00 A2996 RMK A01 T02461002  RH  020%=      5-min Rain = 0
KVA1 222043Z 25018KT 25/M00 A2996 RMK A01 T02481002  RH  019%=      5-min Rain = 0
KVA1 222044Z 24015KT 25/M00 A2996 RMK A01 T02461003  RH  019%=      5-min Rain = 0
KVA1 222045Z 24013KT 25/M00 A2996 RMK A01 T02451002  RH  020%=      5-min Rain = 0
KVA1 222046Z 24012KT 24/M00 A2996 RMK A01 T02431004  RH  020%=      5-min Rain = 0
KVA1 222047Z 25013KT 24/M00 A2996 RMK A01 T02421002  RH  020%=      5-min Rain = 0
KVA1 222048Z 25012KT 24/M00 A2996 RMK A01 T02431001  RH  020%=      5-min Rain = 0
KVA1 222049Z 25009KT 24/00 A2996 RMK A01 T02420001  RH  020%=      5-min Rain = 0
KVA1 222050Z 25009KT 24/00 A2996 RMK A01 T02410001  RH  020%=      5-min Rain = 0
KVA1 222051Z 24010KT 24/00 A2996 RMK A01 T02420001  RH  020%=      5-min Rain = 0
KVA1 222052Z 22011KT 24/00 A2996 RMK A01 T02420002  RH  021%=      5-min Rain = 0
KVA1 222053Z 24010KT 24/00 A2995 RMK A01 T02410004  RH  021%=      5-min Rain = 0
KVA1 222054Z 25009KT 24/01 A2996 RMK A01 T02420005  RH  021%=      5-min Rain = 0
KVA1 222055Z 27008KT 24/01 A2995 RMK A01 T02400005  RH  021%=      5-min Rain = 0
KVA1 222056Z 28005KT 24/00 A2995 RMK A01 T02400004  RH  021%=      5-min Rain = 0
KVA1 222057Z 31009G14KT 24/00 A2995 RMK A01 T02400004  RH  021%=      5-min Rain = 0
KVA1 222058Z 31010KT 24/00 A2995 RMK A01 T02390004  RH  021%=      5-min Rain = 0
KVA1 222059Z 30009KT 24/00 A2995 RMK A01 T02390004  RH  021%=      5-min Rain = 0
KVA1 222100Z 29005KT 24/00 A2995 RMK A01 T02370003  RH  021%=      5-min Rain = 0
KVA1 222101Z 27005KT 24/00 A2995 RMK A01 T02350004  RH  022%=      5-min Rain = 0
KVA1 222102Z 25006KT 24/01 A2995 RMK A01 T02360006  RH  022%=      5-min Rain = 0
KVA1 222103Z 23008KT 24/01 A2995 RMK A01 T02400007  RH  022%=      5-min Rain = 0
KVA1 222104Z 23009KT 24/01 A2995 RMK A01 T02400008  RH  022%=      5-min Rain = 0
KVA1 222105Z 23011KT 24/01 A2995 RMK A01 T02400010  RH  022%=      5-min Rain = 0
KVA1 222106Z 24011KT 24/01 A2995 RMK A01 T02400010  RH  022%=      5-min Rain = 0
KVA1 222107Z 24009KT 24/01 A2995 RMK A01 T02390010  RH  022%=      5-min Rain = 0
KVA1 222108Z 26007KT 24/01 A2995 RMK A01 T02380010  RH  022%=      5-min Rain = 0
KVA1 222109Z 29006KT 24/01 A2995 RMK A01 T02370010  RH  022%=      5-min Rain = 0
KVA1 222110Z 27010KT 24/01 A2995 RMK A01 T02380009  RH  022%=      5-min Rain = 0
KVA1 222111Z 27013KT 24/01 A2995 RMK A01 T02400009  RH  022%=      5-min Rain = 0
KVA1 222112Z 27016KT 24/01 A2995 RMK A01 T02380007  RH  022%=      5-min Rain = 0
KVA1 222113Z 27013KT 24/01 A2995 RMK A01 T02350006  RH  022%=      5-min Rain = 0
KVA1 222114Z 27014KT 24/01 A2995 RMK A01 T02350008  RH  022%=      5-min Rain = 0
KVA1 222115Z 28013KT 24/01 A2995 RMK A01 T02350007  RH  022%=      5-min Rain = 0
KVA1 222116Z 27014KT 23/01 A2995 RMK A01 T02340009  RH  023%=      5-min Rain = 0
KVA1 222117Z 26011KT 23/01 A2995 RMK A01 T02340010  RH  023%=      5-min Rain = 0
KVA1 222118Z 26011KT 23/01 A2995 RMK A01 T02340008  RH  023%=      5-min Rain = 0
KVA1 222119Z 27009KT 23/01 A2995 RMK A01 T02340008  RH  022%=      5-min Rain = 0
KVA1 222120Z 27009KT 24/01 A2995 RMK A01 T02350008  RH  022%=      5-min Rain = 0
KVA1 222121Z 27012G17KT 23/01 A2995 RMK A01 T02330006  RH  022%=      5-min Rain = 0
KVA1 222122Z 29011KT 23/00 A2995 RMK A01 T02330004  RH  022%=      5-min Rain = 0
KVA1 222123Z 29010KT 23/00 A2995 RMK A01 T02340002  RH  022%=      5-min Rain = 0
KVA1 222124Z 29007KT 23/00 A2995 RMK A01 T02320001  RH  022%=      5-min Rain = 0
KVA1 222125Z 30010KT 23/00 A2995 RMK A01 T02330002  RH  022%=      5-min Rain = 0
KVA1 222126Z 29013KT 23/00 A2995 RMK A01 T02340001  RH  021%=      5-min Rain = 0
KVA1 222127Z 30013KT 23/00 A2995 RMK A01 T02340000  RH  021%=      5-min Rain = 0
KVA1 222128Z 30013G18KT 23/M00 A2995 RMK A01 T02311001  RH  021%=      5-min Rain = 0
KVA1 222129Z 29015KT 23/M00 A2995 RMK A01 T02311001  RH  022%=      5-min Rain = 0
KVA1 222130Z 28012KT 23/00 A2995 RMK A01 T023200-0  RH  022%=      5-min Rain = 0
KVA1 222131Z 28011KT 23/M00 A2995 RMK A01 T02311002  RH  021%=      5-min Rain = 0
KVA1 222132Z 28011KT 23/M00 A2995 RMK A01 T02301002  RH  021%=      5-min Rain = 0
KVA1 222133Z 29013KT 23/M00 A2995 RMK A01 T02311002  RH  021%=      5-min Rain = 0
KVA1 222134Z 27010KT 23/M00 A2995 RMK A01 T02321002  RH  021%=      5-min Rain = 0
KVA1 222135Z 26009KT 23/M00 A2995 RMK A01 T02321001  RH  021%=      5-min Rain = 0
KVA1 222136Z 27010G16KT 23/00 A2995 RMK A01 T02310000  RH  022%=      5-min Rain = 0
KVA1 222137Z 27012KT 23/M00 A2995 RMK A01 T02311002  RH  021%=      5-min Rain = 0
KVA1 222138Z 27011KT 23/M01 A2995 RMK A01 T02311005  RH  021%=      5-min Rain = 0
KVA1 222139Z 27009KT 23/M01 A2995 RMK A01 T02311006  RH  021%=      5-min Rain = 0
KVA1 222140Z 27010KT 23/M01 A2995 RMK A01 T02311006  RH  021%=      5-min Rain = 0
KVA1 222141Z 28010KT 23/M01 A2995 RMK A01 T02311006  RH  021%=      5-min Rain = 0
KVA1 222142Z 26009KT 23/M00 A2995 RMK A01 T02311004  RH  021%=      5-min Rain = 0
KVA1 222143Z 29008KT 23/M01 A2995 RMK A01 T02301006  RH  021%=      5-min Rain = 0
KVA1 222144Z 29006KT 23/M01 A2995 RMK A01 T02301008  RH  021%=      5-min Rain = 0
KVA1 222145Z 30009KT 23/M01 A2995 RMK A01 T02301009  RH  020%=      5-min Rain = 0
KVA1 222146Z 29009KT 23/M01 A2995 RMK A01 T02301011  RH  020%=      5-min Rain = 0
KVA1 222147Z 29010KT 23/M01 A2995 RMK A01 T02291009  RH  021%=      5-min Rain = 0
KVA1 222148Z 28009KT 23/M01 A2995 RMK A01 T02291009  RH  020%=      5-min Rain = 0
KVA1 222149Z 30008KT 23/M01 A2995 RMK A01 T02311009  RH  020%=      5-min Rain = 0
KVA1 222150Z 28008KT 23/M01 A2995 RMK A01 T02321009  RH  020%=      5-min Rain = 0
KVA1 222151Z 28008KT 23/M01 A2995 RMK A01 T02321009  RH  020%=      5-min Rain = 0
KVA1 222152Z 27009KT 23/M01 A2995 RMK A01 T02311011  RH  020%=      5-min Rain = 0
KVA1 222153Z 26009KT 23/M01 A2995 RMK A01 T02291012  RH  020%=      5-min Rain = 0
KVA1 222154Z 27010KT 23/M01 A2995 RMK A01 T02291012  RH  020%=      5-min Rain = 0
KVA1 222155Z 27007KT 23/M01 A2995 RMK A01 T02291013  RH  020%=      5-min Rain = 0
KVA1 222156Z 26009KT 23/M01 A2995 RMK A01 T02301012  RH  020%=      5-min Rain = 0
KVA1 222157Z 25011KT 23/M01 A2995 RMK A01 T02301013  RH  020%=      5-min Rain = 0
KVA1 222158Z 25010KT 23/M01 A2995 RMK A01 T02311013  RH  020%=      5-min Rain = 0
KVA1 222159Z 25010KT 23/M02 A2995 RMK A01 T02311018  RH  019%=      5-min Rain = 0
KVA1 222200Z 25014KT 23/M03 A2995 RMK A01 T02311028  RH  018%=      5-min Rain = 0
KVA1 222201Z 24010KT 23/M04 A2995 RMK A01 T02311036  RH  017%=      5-min Rain = 0
KVA1 222202Z 24008KT 23/M04 A2995 RMK A01 T02301036  RH  017%=      5-min Rain = 0
KVA1 222203Z 24007KT 23/M04 A2995 RMK A01 T02311036  RH  017%=      5-min Rain = 0
KVA1 222204Z 26008G13KT 23/M04 A2995 RMK A01 T02321035  RH  017%=      5-min Rain = 0
KVA1 222205Z 26012KT 23/M05 A2995 RMK A01 T02341050  RH  015%=      5-min Rain = 0
KVA1 222206Z 26010KT 23/M06 A2995 RMK A01 T02331056  RH  014%=      5-min Rain = 0
KVA1 222207Z 26008KT 23/M06 A2995 RMK A01 T02331059  RH  014%=      5-min Rain = 0
KVA1 222208Z 27008KT 23/M06 A2995 RMK A01 T02331061  RH  014%=      5-min Rain = 0
KVA1 222209Z 29009G15KT 23/M06 A2995 RMK A01 T02341060  RH  014%=      5-min Rain = 0
KVA1 222210Z 29014KT 23/M05 A2995 RMK A01 T02331054  RH  014%=      5-min Rain = 0
KVA1 222211Z 29011KT 23/M05 A2995 RMK A01 T02311050  RH  015%=      5-min Rain = 0
KVA1 222212Z 29015KT 23/M05 A2995 RMK A01 T02301049  RH  015%=      5-min Rain = 0
KVA1 222213Z 29014KT 23/M05 A2995 RMK A01 T02281047  RH  015%=      5-min Rain = 0
KVA1 222214Z 30010KT 23/M05 A2995 RMK A01 T02281045  RH  016%=      5-min Rain = 0
KVA1 222215Z 30014KT 23/M04 A2995 RMK A01 T02281044  RH  016%=      5-min Rain = 0
KVA1 222216Z 31012KT 23/M05 A2995 RMK A01 T02271046  RH  016%=      5-min Rain = 0
KVA1 222217Z 30008G13KT 23/M05 A2995 RMK A01 T02261047  RH  016%=      5-min Rain = 0
KVA1 222218Z 29010KT 23/M05 A2995 RMK A01 T02271045  RH  016%=      5-min Rain = 0
KVA1 222219Z 28010KT 23/M05 A2995 RMK A01 T02271045  RH  016%=      5-min Rain = 0
KVA1 222220Z 28009KT 23/M05 A2995 RMK A01 T02271047  RH  016%=      5-min Rain = 0
KVA1 222221Z 30010G15KT 23/M05 A2995 RMK A01 T02261045  RH  016%=      5-min Rain = 0
KVA1 222222Z 29012KT 23/M04 A2995 RMK A01 T02271043  RH  016%=      5-min Rain = 0
KVA1 222223Z 29011KT 23/M04 A2995 RMK A01 T02271043  RH  016%=      5-min Rain = 0
KVA1 222224Z 29011KT 23/M04 A2995 RMK A01 T02261042  RH  016%=      5-min Rain = 0
KVA1 222225Z 28012KT 23/M04 A2995 RMK A01 T02261043  RH  016%=      5-min Rain = 0
KVA1 222226Z 28009KT 23/M04 A2995 RMK A01 T02261043  RH  016%=      5-min Rain = 0
KVA1 222227Z 28009KT 23/M04 A2995 RMK A01 T02261043  RH  016%=      5-min Rain = 0
KVA1 222228Z 30012KT 23/M05 A2995 RMK A01 T02261045  RH  016%=      5-min Rain = 0
KVA1 222229Z 29012KT 23/M05 A2994 RMK A01 T02261049  RH  015%=      5-min Rain = 0
KVA1 222230Z 29013KT 23/M05 A2994 RMK A01 T02261050  RH  015%=      5-min Rain = 0
KVA1 222231Z 29012KT 23/M05 A2994 RMK A01 T02251052  RH  015%=      5-min Rain = 0
KVA1 222232Z 30008KT 23/M05 A2994 RMK A01 T02251053  RH  015%=      5-min Rain = 0
KVA1 222233Z 31008KT 23/M05 A2994 RMK A01 T02251052  RH  015%=      5-min Rain = 0
KVA1 222234Z 30009KT 23/M05 A2994 RMK A01 T02251053  RH  015%=      5-min Rain = 0
KVA1 222235Z 31010KT 23/M05 A2994 RMK A01 T02261052  RH  015%=      5-min Rain = 0
KVA1 222236Z 30008KT 23/M05 A2994 RMK A01 T02261054  RH  015%=      5-min Rain = 0
KVA1 222237Z 31009KT 23/M05 A2994 RMK A01 T02251054  RH  015%=      5-min Rain = 0
KVA1 222238Z 31009KT 23/M05 A2994 RMK A01 T02261053  RH  015%=      5-min Rain = 0
KVA1 222239Z 31011KT 23/M06 A2994 RMK A01 T02261055  RH  015%=      5-min Rain = 0
KVA1 222240Z 30009KT 23/M06 A2994 RMK A01 T02261056  RH  015%=      5-min Rain = 0
KVA1 222241Z 31013KT 23/M06 A2994 RMK A01 T02261061  RH  014%=      5-min Rain = 0
KVA1 222242Z 31012KT 23/M07 A2995 RMK A01 T02251066  RH  014%=      5-min Rain = 0
KVA1 222243Z 30010KT 22/M07 A2995 RMK A01 T02241068  RH  014%=      5-min Rain = 0
KVA1 222244Z 31010KT 22/M07 A2995 RMK A01 T02231068  RH  014%=      5-min Rain = 0
KVA1 222245Z 29012KT 22/M07 A2995 RMK A01 T02241068  RH  014%=      5-min Rain = 0
KVA1 222246Z 29010KT 22/M07 A2995 RMK A01 T02241069  RH  014%=      5-min Rain = 0
KVA1 222247Z 28009KT 22/M07 A2995 RMK A01 T02241069  RH  013%=      5-min Rain = 0
KVA1 222248Z 30011KT 23/M07 A2995 RMK A01 T02251069  RH  013%=      5-min Rain = 0
KVA1 222249Z 29013KT 23/M07 A2995 RMK A01 T02261071  RH  013%=      5-min Rain = 0
KVA1 222250Z 29011KT 22/M07 A2995 RMK A01 T02241073  RH  013%=      5-min Rain = 0
KVA1 222251Z 31010KT 22/M07 A2995 RMK A01 T02241074  RH  013%=      5-min Rain = 0
KVA1 222252Z 30009KT 22/M07 A2995 RMK A01 T02241074  RH  013%=      5-min Rain = 0
KVA1 222253Z 29011KT 22/M07 A2995 RMK A01 T02241074  RH  013%=      5-min Rain = 0
KVA1 222254Z 28013KT 22/M07 A2994 RMK A01 T02241073  RH  013%=      5-min Rain = 0
KVA1 222255Z 29014KT 22/M07 A2994 RMK A01 T02241073  RH  013%=      5-min Rain = 0
KVA1 222256Z 29011G16KT 22/M07 A2994 RMK A01 T02231074  RH  013%=      5-min Rain = 0
KVA1 222257Z 29011KT 22/M07 A2994 RMK A01 T02231074  RH  013%=      5-min Rain = 0
KVA1 222258Z 29010KT 22/M07 A2994 RMK A01 T02231073  RH  013%=      5-min Rain = 0
KVA1 222259Z 30009KT 22/M07 A2994 RMK A01 T02231073  RH  013%=      5-min Rain = 0
KVA1 222300Z 30009KT 22/M07 A2994 RMK A01 T02231073  RH  013%=      5-min Rain = 0
KVA1 222301Z 29010KT 22/M07 A2994 RMK A01 T02231071  RH  013%=      5-min Rain = 0
KVA1 222302Z 29009KT 22/M07 A2994 RMK A01 T02231070  RH  013%=      5-min Rain = 0
KVA1 222303Z 30010KT 22/M07 A2994 RMK A01 T02231069  RH  014%=      5-min Rain = 0
KVA1 222304Z 28008KT 22/M07 A2994 RMK A01 T02231067  RH  014%=      5-min Rain = 0
KVA1 222305Z 27008KT 22/M07 A2994 RMK A01 T02231067  RH  014%=      5-min Rain = 0
KVA1 222306Z 27012KT 22/M07 A2994 RMK A01 T02241068  RH  014%=      5-min Rain = 0
KVA1 222307Z 28011KT 22/M07 A2994 RMK A01 T02231067  RH  014%=      5-min Rain = 0
KVA1 222308Z 29008KT 22/M07 A2994 RMK A01 T02231068  RH  014%=      5-min Rain = 0
KVA1 222309Z 30010KT 22/M07 A2994 RMK A01 T02221066  RH  014%=      5-min Rain = 0
KVA1 222310Z 30010KT 22/M07 A2994 RMK A01 T02221067  RH  014%=      5-min Rain = 0
KVA1 222311Z 30008G13KT 22/M07 A2994 RMK A01 T02221066  RH  014%=      5-min Rain = 0
KVA1 222312Z 29010KT 22/M06 A2995 RMK A01 T02221064  RH  014%=      5-min Rain = 0
KVA1 222313Z 30009KT 22/M06 A2994 RMK A01 T02231064  RH  014%=      5-min Rain = 0
KVA1 222314Z 29010KT 22/M06 A2994 RMK A01 T02221064  RH  014%=      5-min Rain = 0
KVA1 222315Z 29012KT 22/M06 A2994 RMK A01 T02221062  RH  014%=      5-min Rain = 0
KVA1 222316Z 29008KT 22/M06 A2994 RMK A01 T02211062  RH  014%=      5-min Rain = 0
KVA1 222317Z 30011KT 22/M06 A2994 RMK A01 T02211062  RH  015%=      5-min Rain = 0
KVA1 222318Z 29009KT 22/M06 A2994 RMK A01 T02211063  RH  014%=      5-min Rain = 0
KVA1 222319Z 29008G13KT 22/M06 A2994 RMK A01 T02211062  RH  014%=      5-min Rain = 0
KVA1 222320Z 31011KT 22/M06 A2994 RMK A01 T02221062  RH  014%=      5-min Rain = 0
KVA1 222321Z 29011KT 22/M06 A2994 RMK A01 T02221063  RH  014%=      5-min Rain = 0
KVA1 222322Z 30011KT 22/M06 A2994 RMK A01 T02221064  RH  014%=      5-min Rain = 0
KVA1 222323Z 31010KT 22/M06 A2994 RMK A01 T02211064  RH  014%=      5-min Rain = 0
KVA1 222324Z 30011KT 22/M07 A2994 RMK A01 T02201065  RH  014%=      5-min Rain = 0
KVA1 222325Z 31011KT 22/M07 A2994 RMK A01 T02201068  RH  014%=      5-min Rain = 0
KVA1 222326Z 30010KT 22/M07 A2994 RMK A01 T02201069  RH  014%=      5-min Rain = 0
KVA1 222327Z 31008KT 22/M07 A2994 RMK A01 T02201069  RH  014%=      5-min Rain = 0
KVA1 222328Z 29011KT 22/M07 A2994 RMK A01 T02201069  RH  014%=      5-min Rain = 0
KVA1 222329Z 29012KT 22/M07 A2994 RMK A01 T02201070  RH  014%=      5-min Rain = 0
KVA1 222330Z 29009G14KT 22/M07 A2994 RMK A01 T02191071  RH  014%=      5-min Rain = 0
KVA1 222331Z 29010KT 22/M07 A2994 RMK A01 T02191071  RH  014%=      5-min Rain = 0
KVA1 222332Z 30009KT 22/M07 A2994 RMK A01 T02181071  RH  014%=      5-min Rain = 0
KVA1 222333Z 29010KT 22/M07 A2994 RMK A01 T02181070  RH  014%=      5-min Rain = 0
KVA1 222334Z 29010KT 22/M07 A2994 RMK A01 T02181070  RH  014%=      5-min Rain = 0
KVA1 222335Z 28010KT 22/M07 A2994 RMK A01 T02171069  RH  014%=      5-min Rain = 0
KVA1 222336Z 28008KT 22/M07 A2994 RMK A01 T02171069  RH  014%=      5-min Rain = 0
KVA1 222337Z 29008KT 22/M07 A2994 RMK A01 T02181069  RH  014%=      5-min Rain = 0
KVA1 222338Z 29009KT 22/M07 A2994 RMK A01 T02181068  RH  014%=      5-min Rain = 0
KVA1 222339Z 29008KT 22/M07 A2994 RMK A01 T02181069  RH  014%=      5-min Rain = 0
KVA1 222340Z 28008KT 22/M07 A2994 RMK A01 T02181068  RH  014%=      5-min Rain = 0
KVA1 222341Z 29007KT 22/M07 A2994 RMK A01 T02181068  RH  014%=      5-min Rain = 0
KVA1 222342Z 28010G15KT 22/M07 A2994 RMK A01 T02181068  RH  014%=      5-min Rain = 0
KVA1 222343Z 28013KT 22/M07 A2994 RMK A01 T02171068  RH  014%=      5-min Rain = 0
KVA1 222344Z 29010KT 22/M07 A2994 RMK A01 T02161070  RH  014%=      5-min Rain = 0
KVA1 222345Z 30010KT 22/M07 A2994 RMK A01 T02151071  RH  014%=      5-min Rain = 0
KVA1 222346Z 30011KT 22/M07 A2994 RMK A01 T02151071  RH  014%=      5-min Rain = 0
KVA1 222347Z 30010KT 21/M07 A2994 RMK A01 T02141070  RH  014%=      5-min Rain = 0
KVA1 222348Z 30008KT 21/M07 A2994 RMK A01 T02141070  RH  014%=      5-min Rain = 0
KVA1 222349Z 29007KT 21/M07 A2994 RMK A01 T02141070  RH  014%=      5-min Rain = 0
KVA1 222350Z 29010KT 21/M07 A2994 RMK A01 T02141069  RH  014%=      5-min Rain = 0
KVA1 222351Z 29010KT 21/M07 A2994 RMK A01 T02141070  RH  014%=      5-min Rain = 0
KVA1 222352Z 29010KT 21/M07 A2994 RMK A01 T02141070  RH  014%=      5-min Rain = 0
KVA1 222353Z 29009KT 21/M07 A2994 RMK A01 T02141070  RH  014%=      5-min Rain = 0
KVA1 222354Z 28007KT 21/M07 A2994 RMK A01 T02141070  RH  014%=      5-min Rain = 0
KVA1 222355Z 28006KT 21/M07 A2994 RMK A01 T02141069  RH  014%=      5-min Rain = 0
KVA1 222356Z 28009KT 21/M07 A2994 RMK A01 T02141069  RH  014%=      5-min Rain = 0
KVA1 222357Z 28008KT 21/M07 A2994 RMK A01 T02141069  RH  014%=      5-min Rain = 0
KVA1 222358Z 28008KT 21/M07 A2994 RMK A01 T02131069  RH  014%=      5-min Rain = 0
KVA1 222359Z 29009KT 21/M07 A2994 RMK A01 T02131069  RH  014%=      5-min Rain = 0
KVA1 230000Z 30009KT 21/M07 A2994 RMK A01 T02131069  RH  014%=      5-min Rain = 0
KVA1 230001Z 29009KT 21/M07 A2995 RMK A01 T02131069  RH  014%=      5-min Rain = 0
KVA1 230002Z 29010KT 21/M07 A2995 RMK A01 T02131069  RH  014%=      5-min Rain = 0
KVA1 230003Z 29010KT 21/M07 A2995 RMK A01 T02131069  RH  014%=      5-min Rain = 0
KVA1 230004Z 30009KT 21/M07 A2995 RMK A01 T02121069  RH  014%=      5-min Rain = 0
KVA1 230005Z 30008KT 21/M07 A2995 RMK A01 T02121070  RH  014%=      5-min Rain = 0
KVA1 230006Z 31009KT 21/M07 A2995 RMK A01 T02121071  RH  014%=      5-min Rain = 0
KVA1 230007Z 30012KT 21/M07 A2995 RMK A01 T02121071  RH  014%=      5-min Rain = 0
KVA1 230008Z 29009KT 21/M07 A2995 RMK A01 T02121071  RH  014%=      5-min Rain = 0
KVA1 230009Z 29010KT 21/M07 A2995 RMK A01 T02111072  RH  014%=      5-min Rain = 0
KVA1 230010Z 29008KT 21/M07 A2995 RMK A01 T02121072  RH  014%=      5-min Rain = 0
KVA1 230011Z 30009KT 21/M07 A2995 RMK A01 T02121071  RH  014%=      5-min Rain = 0
KVA1 230012Z 29011KT 21/M07 A2995 RMK A01 T02111072  RH  014%=      5-min Rain = 0
KVA1 230013Z 29009KT 21/M07 A2995 RMK A01 T02111072  RH  014%=      5-min Rain = 0
KVA1 230014Z 29008KT 21/M07 A2995 RMK A01 T02121071  RH  014%=      5-min Rain = 0
KVA1 230015Z 29008KT 21/M07 A2995 RMK A01 T02111072  RH  014%=      5-min Rain = 0
KVA1 230016Z 30009KT 21/M07 A2995 RMK A01 T02111072  RH  014%=      5-min Rain = 0
KVA1 230017Z 29008KT 21/M07 A2995 RMK A01 T02111072  RH  014%=      5-min Rain = 0
KVA1 230018Z 29009KT 21/M07 A2995 RMK A01 T02111071  RH  014%=      5-min Rain = 0
KVA1 230019Z 29007KT 21/M07 A2995 RMK A01 T02111071  RH  014%=      5-min Rain = 0
KVA1 230020Z 31007KT 21/M07 A2995 RMK A01 T02111071  RH  014%=      5-min Rain = 0
KVA1 230021Z 30008KT 21/M07 A2995 RMK A01 T02111070  RH  014%=      5-min Rain = 0
KVA1 230022Z 31009KT 21/M07 A2995 RMK A01 T02101070  RH  015%=      5-min Rain = 0
KVA1 230023Z 30009KT 21/M07 A2995 RMK A01 T02101070  RH  015%=      5-min Rain = 0
KVA1 230024Z 29007KT 21/M07 A2995 RMK A01 T02101069  RH  015%=      5-min Rain = 0
KVA1 230025Z 29008KT 21/M07 A2995 RMK A01 T02101069  RH  015%=      5-min Rain = 0
KVA1 230026Z 30009KT 21/M07 A2995 RMK A01 T02101069  RH  015%=      5-min Rain = 0
KVA1 230027Z 30008KT 21/M07 A2995 RMK A01 T02101069  RH  015%=      5-min Rain = 0
KVA1 230028Z 30008KT 21/M07 A2995 RMK A01 T02101069  RH  015%=      5-min Rain = 0
KVA1 230029Z 30006KT 21/M07 A2995 RMK A01 T02091068  RH  015%=      5-min Rain = 0
KVA1 230030Z 29007KT 21/M07 A2995 RMK A01 T02091068  RH  015%=      5-min Rain = 0
KVA1 230031Z 30006KT 21/M07 A2995 RMK A01 T02091067  RH  015%=      5-min Rain = 0
KVA1 230032Z 30005KT 21/M07 A2995 RMK A01 T02091067  RH  015%=      5-min Rain = 0
KVA1 230033Z 30005KT 21/M07 A2995 RMK A01 T02081067  RH  015%=      5-min Rain = 0
KVA1 230034Z 30005KT 21/M07 A2995 RMK A01 T02081067  RH  015%=      5-min Rain = 0
KVA1 230035Z 30004KT 21/M07 A2995 RMK A01 T02081067  RH  015%=      5-min Rain = 0
KVA1 230036Z 30005KT 21/M07 A2995 RMK A01 T02071066  RH  015%=      5-min Rain = 0
KVA1 230037Z 31006KT 21/M07 A2995 RMK A01 T02071067  RH  015%=      5-min Rain = 0
KVA1 230038Z 31005KT 21/M07 A2995 RMK A01 T02071066  RH  015%=      5-min Rain = 0
KVA1 230039Z 31005KT 21/M07 A2995 RMK A01 T02071066  RH  015%=      5-min Rain = 0
KVA1 230040Z 30005KT 21/M07 A2995 RMK A01 T02071066  RH  015%=      5-min Rain = 0
KVA1 230041Z 30005KT 21/M07 A2995 RMK A01 T02061066  RH  015%=      5-min Rain = 0
KVA1 230042Z 30005KT 21/M07 A2995 RMK A01 T02061066  RH  015%=      5-min Rain = 0
KVA1 230043Z 31006KT 21/M07 A2995 RMK A01 T02061066  RH  015%=      5-min Rain = 0
KVA1 230044Z 30006KT 21/M07 A2995 RMK A01 T02061066  RH  015%=      5-min Rain = 0
KVA1 230045Z 29007KT 21/M07 A2995 RMK A01 T02051067  RH  015%=      5-min Rain = 0
KVA1 230046Z 30006KT 21/M07 A2995 RMK A01 T02061067  RH  015%=      5-min Rain = 0
KVA1 230047Z 30007KT 21/M07 A2995 RMK A01 T02051066  RH  015%=      5-min Rain = 0
KVA1 230048Z 30006KT 21/M07 A2995 RMK A01 T02051066  RH  015%=      5-min Rain = 0
KVA1 230049Z 30009KT 20/M07 A2995 RMK A01 T02041067  RH  015%=      5-min Rain = 0
KVA1 230050Z 30008KT 20/M07 A2995 RMK A01 T02041069  RH  015%=      5-min Rain = 0
KVA1 230051Z 30009KT 21/M07 A2995 RMK A01 T02051069  RH  015%=      5-min Rain = 0
KVA1 230052Z 30008KT 21/M07 A2995 RMK A01 T02061070  RH  015%=      5-min Rain = 0
KVA1 230053Z 29006KT 21/M07 A2995 RMK A01 T02061070  RH  015%=      5-min Rain = 0
KVA1 230054Z 29008KT 21/M07 A2995 RMK A01 T02061069  RH  015%=      5-min Rain = 0
KVA1 230055Z 29007KT 21/M07 A2995 RMK A01 T02051070  RH  015%=      5-min Rain = 0
KVA1 230056Z 30007KT 21/M07 A2995 RMK A01 T02061070  RH  015%=      5-min Rain = 0
KVA1 230057Z 29006KT 21/M07 A2995 RMK A01 T02061070  RH  015%=      5-min Rain = 0
KVA1 230058Z 30007KT 21/M07 A2995 RMK A01 T02061069  RH  015%=      5-min Rain = 0
KVA1 230059Z 31007KT 21/M07 A2995 RMK A01 T02051070  RH  015%=      5-min Rain = 0
KVA1 230100Z 30008KT 21/M07 A2995 RMK A01 T02051071  RH  015%=      5-min Rain = 0
KVA1 230101Z 30008KT 21/M07 A2995 RMK A01 T02051071  RH  015%=      5-min Rain = 0
KVA1 230102Z 30008KT 20/M07 A2995 RMK A01 T02041072  RH  015%=      5-min Rain = 0
KVA1 230103Z 30006KT 20/M07 A2995 RMK A01 T02041071  RH  015%=      5-min Rain = 0
KVA1 230104Z 29006KT 20/M07 A2995 RMK A01 T02031071  RH  015%=      5-min Rain = 0
KVA1 230105Z 29005KT 20/M07 A2996 RMK A01 T02021071  RH  015%=      5-min Rain = 0
KVA1 230106Z 29005KT 20/M07 A2996 RMK A01 T02021071  RH  015%=      5-min Rain = 0
KVA1 230107Z 30006KT 20/M07 A2996 RMK A01 T02011071  RH  015%=      5-min Rain = 0
KVA1 230108Z 29006KT 20/M07 A2996 RMK A01 T02001071  RH  015%=      5-min Rain = 0
KVA1 230109Z 29005KT 20/M07 A2996 RMK A01 T01991071  RH  015%=      5-min Rain = 0
KVA1 230110Z 29004KT 20/M07 A2996 RMK A01 T01991071  RH  016%=      5-min Rain = 0
KVA1 230111Z 29005KT 20/M07 A2996 RMK A01 T01981070  RH  016%=      5-min Rain = 0
KVA1 230112Z 30005KT 20/M07 A2996 RMK A01 T01971071  RH  016%=      5-min Rain = 0
KVA1 230113Z 30005KT 20/M07 A2996 RMK A01 T01961070  RH  016%=      5-min Rain = 0
KVA1 230114Z 29005KT 20/M07 A2996 RMK A01 T01961070  RH  016%=      5-min Rain = 0
KVA1 230115Z 29005KT 20/M07 A2996 RMK A01 T01951070  RH  016%=      5-min Rain = 0
KVA1 230116Z 29005KT 20/M07 A2996 RMK A01 T01951071  RH  016%=      5-min Rain = 0
KVA1 230117Z 29006KT 19/M07 A2996 RMK A01 T01931071  RH  016%=      5-min Rain = 0
KVA1 230118Z 30005KT 19/M07 A2996 RMK A01 T01931071  RH  016%=      5-min Rain = 0
KVA1 230119Z 30005KT 19/M07 A2996 RMK A01 T01921071  RH  016%=      5-min Rain = 0
KVA1 230120Z 30004KT 19/M07 A2996 RMK A01 T01911071  RH  016%=      5-min Rain = 0
KVA1 230121Z 30006KT 19/M07 A2996 RMK A01 T01911072  RH  016%=      5-min Rain = 0
KVA1 230122Z 29005KT 19/M07 A2996 RMK A01 T01901072  RH  016%=      5-min Rain = 0
KVA1 230123Z 30006KT 19/M07 A2996 RMK A01 T01901072  RH  016%=      5-min Rain = 0
KVA1 230124Z 30006KT 19/M07 A2996 RMK A01 T01891073  RH  016%=      5-min Rain = 0
KVA1 230125Z 30006KT 19/M07 A2996 RMK A01 T01891073  RH  016%=      5-min Rain = 0
KVA1 230126Z 30007KT 19/M07 A2996 RMK A01 T01901073  RH  016%=      5-min Rain = 0
KVA1 230127Z 30007KT 19/M07 A2996 RMK A01 T01911073  RH  016%=      5-min Rain = 0
KVA1 230128Z 29006KT 19/M07 A2996 RMK A01 T01911073  RH  016%=      5-min Rain = 0
KVA1 230129Z 29006KT 19/M07 A2996 RMK A01 T01911074  RH  016%=      5-min Rain = 0
KVA1 230130Z 30006KT 19/M07 A2997 RMK A01 T01911073  RH  016%=      5-min Rain = 0
KVA1 230131Z 30007KT 19/M07 A2997 RMK A01 T01901074  RH  016%=      5-min Rain = 0
KVA1 230132Z 30007KT 19/M07 A2997 RMK A01 T01901073  RH  016%=      5-min Rain = 0
KVA1 230133Z 29007KT 19/M07 A2997 RMK A01 T01891074  RH  016%=      5-min Rain = 0
KVA1 230134Z 30006KT 19/M07 A2997 RMK A01 T01901074  RH  016%=      5-min Rain = 0
KVA1 230135Z 30007KT 19/M07 A2997 RMK A01 T01901074  RH  016%=      5-min Rain = 0
KVA1 230136Z 31008KT 19/M07 A2997 RMK A01 T01891074  RH  016%=      5-min Rain = 0
KVA1 230137Z 29006KT 19/M07 A2997 RMK A01 T01901074  RH  016%=      5-min Rain = 0
KVA1 230138Z 30006KT 19/M07 A2997 RMK A01 T01901074  RH  016%=      5-min Rain = 0
KVA1 230139Z 30006KT 19/M07 A2997 RMK A01 T01891074  RH  016%=      5-min Rain = 0
KVA1 230140Z 29005KT 19/M07 A2997 RMK A01 T01881074  RH  016%=      5-min Rain = 0
KVA1 230141Z 29006KT 19/M07 A2997 RMK A01 T01871074  RH  016%=      5-min Rain = 0
KVA1 230142Z 29006KT 19/M07 A2997 RMK A01 T01861074  RH  016%=      5-min Rain = 0
KVA1 230143Z 29006KT 19/M07 A2997 RMK A01 T01851074  RH  017%=      5-min Rain = 0
KVA1 230144Z 29006KT 18/M07 A2997 RMK A01 T01841074  RH  017%=      5-min Rain = 0
KVA1 230145Z 29006KT 18/M07 A2997 RMK A01 T01831074  RH  017%=      5-min Rain = 0
KVA1 230146Z 29006KT 18/M07 A2997 RMK A01 T01831074  RH  017%=      5-min Rain = 0
KVA1 230147Z 29006KT 18/M07 A2997 RMK A01 T01831074  RH  017%=      5-min Rain = 0
KVA1 230148Z 29006KT 18/M08 A2997 RMK A01 T01821075  RH  017%=      5-min Rain = 0
KVA1 230149Z 29008KT 18/M07 A2997 RMK A01 T01811074  RH  017%=      5-min Rain = 0
KVA1 230150Z 30008KT 18/M07 A2997 RMK A01 T01831074  RH  017%=      5-min Rain = 0
KVA1 230151Z 29007KT 19/M07 A2997 RMK A01 T01851073  RH  017%=      5-min Rain = 0
KVA1 230152Z 29008KT 19/M07 A2997 RMK A01 T01861073  RH  016%=      5-min Rain = 0
KVA1 230153Z 29007KT 19/M07 A2997 RMK A01 T01871074  RH  016%=      5-min Rain = 0
KVA1 230154Z 29007KT 19/M07 A2997 RMK A01 T01871074  RH  016%=      5-min Rain = 0
KVA1 230155Z 30008KT 19/M07 A2997 RMK A01 T01861074  RH  016%=      5-min Rain = 0
KVA1 230156Z 30007KT 19/M07 A2997 RMK A01 T01861074  RH  016%=      5-min Rain = 0
KVA1 230157Z 30006KT 19/M07 A2997 RMK A01 T01871074  RH  016%=      5-min Rain = 0
KVA1 230158Z 30006KT 19/M07 A2997 RMK A01 T01861074  RH  016%=      5-min Rain = 0
KVA1 230159Z 30007KT 19/M07 A2997 RMK A01 T01851074  RH  016%=      5-min Rain = 0
KVA1 230200Z 30006KT 19/M07 A2997 RMK A01 T01851074  RH  016%=      5-min Rain = 0
KVA1 230201Z 29005KT 19/M07 A2997 RMK A01 T01851074  RH  016%=      5-min Rain = 0
KVA1 230202Z 29006KT 19/M07 A2997 RMK A01 T01851074  RH  016%=      5-min Rain = 0
KVA1 230203Z 29006KT 18/M07 A2997 RMK A01 T01841074  RH  017%=      5-min Rain = 0
KVA1 230204Z 29006KT 18/M07 A2997 RMK A01 T01841074  RH  017%=      5-min Rain = 0
KVA1 230205Z 29006KT 18/M07 A2997 RMK A01 T01841074  RH  017%=      5-min Rain = 0
KVA1 230206Z 30007KT 18/M07 A2997 RMK A01 T01831074  RH  017%=      5-min Rain = 0
KVA1 230207Z 29007KT 18/M07 A2997 RMK A01 T01841073  RH  017%=      5-min Rain = 0
KVA1 230208Z 29006KT 19/M07 A2998 RMK A01 T01851074  RH  017%=      5-min Rain = 0
KVA1 230209Z 29006KT 19/M07 A2998 RMK A01 T01851074  RH  017%=      5-min Rain = 0
KVA1 230210Z 28006KT 18/M08 A2998 RMK A01 T01831075  RH  017%=      5-min Rain = 0
KVA1 230211Z 28005KT 18/M07 A2998 RMK A01 T01821074  RH  017%=      5-min Rain = 0
KVA1 230212Z 29005KT 18/M07 A2998 RMK A01 T01811074  RH  017%=      5-min Rain = 0
KVA1 230213Z 28005KT 18/M07 A2998 RMK A01 T01801074  RH  017%=      5-min Rain = 0
KVA1 230214Z 28005KT 18/M07 A2998 RMK A01 T01791074  RH  017%=      5-min Rain = 0
KVA1 230215Z 29004KT 18/M07 A2998 RMK A01 T01771074  RH  017%=      5-min Rain = 0
KVA1 230216Z 29005KT 18/M07 A2998 RMK A01 T01761074  RH  017%=      5-min Rain = 0
KVA1 230217Z 28006KT 18/M07 A2998 RMK A01 T01751074  RH  018%=      5-min Rain = 0
KVA1 230218Z 29005KT 17/M08 A2998 RMK A01 T01731075  RH  018%=      5-min Rain = 0
KVA1 230219Z 29005KT 17/M07 A2998 RMK A01 T01721074  RH  018%=      5-min Rain = 0
KVA1 230220Z 29005KT 17/M07 A2998 RMK A01 T01701074  RH  018%=      5-min Rain = 0
KVA1 230221Z 29006KT 17/M07 A2998 RMK A01 T01681074  RH  018%=      5-min Rain = 0
KVA1 230222Z 29006KT 17/M07 A2998 RMK A01 T01671074  RH  018%=      5-min Rain = 0
KVA1 230223Z 29007KT 17/M07 A2998 RMK A01 T01661074  RH  019%=      5-min Rain = 0
KVA1 230224Z 29008KT 17/M07 A2998 RMK A01 T01651073  RH  019%=      5-min Rain = 0
KVA1 230225Z 29007KT 16/M07 A2998 RMK A01 T01641074  RH  019%=      5-min Rain = 0
KVA1 230226Z 29007KT 16/M07 A2998 RMK A01 T01641074  RH  019%=      5-min Rain = 0
KVA1 230227Z 29008KT 16/M07 A2998 RMK A01 T01641074  RH  019%=      5-min Rain = 0
KVA1 230228Z 29008KT 16/M07 A2998 RMK A01 T01631074  RH  019%=      5-min Rain = 0
KVA1 230229Z 29008KT 16/M07 A2998 RMK A01 T01641073  RH  019%=      5-min Rain = 0
KVA1 230230Z 28008KT 16/M07 A2998 RMK A01 T01641073  RH  019%=      5-min Rain = 0
KVA1 230231Z 28008KT 16/M07 A2998 RMK A01 T01641073  RH  019%=      5-min Rain = 0
KVA1 230232Z 28008KT 16/M07 A2998 RMK A01 T01641073  RH  019%=      5-min Rain = 0
KVA1 230233Z 28008KT 16/M07 A2999 RMK A01 T01641073  RH  019%=      5-min Rain = 0
KVA1 230234Z 28008KT 16/M07 A2999 RMK A01 T01641073  RH  019%=      5-min Rain = 0
KVA1 230235Z 28008KT 16/M07 A2999 RMK A01 T01641072  RH  019%=      5-min Rain = 0
KVA1 230236Z 28009KT 17/M07 A2999 RMK A01 T01661072  RH  019%=      5-min Rain = 0
KVA1 230237Z 28008KT 17/M07 A2999 RMK A01 T01671072  RH  019%=      5-min Rain = 0
KVA1 230238Z 28009KT 17/M07 A2999 RMK A01 T01681071  RH  019%=      5-min Rain = 0
KVA1 230239Z 29008KT 17/M07 A2999 RMK A01 T01691071  RH  019%=      5-min Rain = 0
KVA1 230240Z 28008KT 17/M07 A2999 RMK A01 T01701071  RH  018%=      5-min Rain = 0
KVA1 230241Z 28008KT 17/M07 A2999 RMK A01 T01711071  RH  018%=      5-min Rain = 0
KVA1 230242Z 29007KT 17/M07 A2999 RMK A01 T01711072  RH  018%=      5-min Rain = 0
KVA1 230243Z 28008KT 17/M07 A2999 RMK A01 T01711072  RH  018%=      5-min Rain = 0
KVA1 230244Z 29007KT 17/M07 A2999 RMK A01 T01711071  RH  018%=      5-min Rain = 0
KVA1 230245Z 28007KT 17/M07 A2999 RMK A01 T01721071  RH  018%=      5-min Rain = 0
KVA1 230246Z 29007KT 17/M07 A2999 RMK A01 T01731071  RH  018%=      5-min Rain = 0
KVA1 230247Z 29007KT 17/M07 A2999 RMK A01 T01741071  RH  018%=      5-min Rain = 0
KVA1 230248Z 29007KT 17/M07 A2999 RMK A01 T01741071  RH  018%=      5-min Rain = 0
KVA1 230249Z 28007KT 17/M07 A2999 RMK A01 T01731072  RH  018%=      5-min Rain = 0
KVA1 230250Z 28006KT 17/M07 A30 RMK A01 T01741072  RH  018%=      5-min Rain = 0
KVA1 230251Z 28006KT 17/M07 A30 RMK A01 T01731072  RH  018%=      5-min Rain = 0
KVA1 230252Z 29007KT 17/M07 A30 RMK A01 T01731072  RH  018%=      5-min Rain = 0
KVA1 230253Z 29007KT 17/M07 A30 RMK A01 T01721072  RH  018%=      5-min Rain = 0
KVA1 230254Z 29007KT 17/M07 A30 RMK A01 T01721072  RH  018%=      5-min Rain = 0
KVA1 230255Z 29007KT 17/M07 A30 RMK A01 T01741072  RH  018%=      5-min Rain = 0
KVA1 230256Z 28005KT 17/M07 A30 RMK A01 T01741072  RH  018%=      5-min Rain = 0
KVA1 230257Z 28005KT 17/M07 A30 RMK A01 T01741072  RH  018%=      5-min Rain = 0
KVA1 230258Z 28004KT 17/M07 A30 RMK A01 T01741072  RH  018%=      5-min Rain = 0
KVA1 230259Z 30003KT 17/M07 A30 RMK A01 T01731072  RH  018%=      5-min Rain = 0
KVA1 230300Z 30004KT 17/M07 A30 RMK A01 T01711073  RH  018%=      5-min Rain = 0
KVA1 230301Z 29005KT 17/M07 A30 RMK A01 T01681073  RH  018%=      5-min Rain = 0
KVA1 230302Z 29005KT 17/M07 A30 RMK A01 T01661073  RH  019%=      5-min Rain = 0
KVA1 230303Z 29004KT 17/M07 A3001 RMK A01 T01651073  RH  019%=      5-min Rain = 0
KVA1 230304Z 29005KT 16/M07 A3001 RMK A01 T01641073  RH  019%=      5-min Rain = 0
KVA1 230305Z 29006KT 16/M07 A3001 RMK A01 T01631073  RH  019%=      5-min Rain = 0
KVA1 230306Z 29006KT 16/M07 A3001 RMK A01 T01631072  RH  019%=      5-min Rain = 0
KVA1 230307Z 29007KT 16/M07 A3001 RMK A01 T01621073  RH  019%=      5-min Rain = 0
KVA1 230308Z 29007KT 16/M07 A3001 RMK A01 T01611073  RH  019%=      5-min Rain = 0
KVA1 230309Z 29007KT 16/M07 A3001 RMK A01 T01611073  RH  019%=      5-min Rain = 0
KVA1 230310Z 28006KT 16/M07 A3001 RMK A01 T01611072  RH  019%=      5-min Rain = 0
KVA1 230311Z 27005KT 16/M07 A3001 RMK A01 T01601072  RH  020%=      5-min Rain = 0
KVA1 230312Z 27005KT 16/M07 A3001 RMK A01 T01601073  RH  020%=      5-min Rain = 0
KVA1 230313Z 28004KT 16/M07 A3001 RMK A01 T01601073  RH  020%=      5-min Rain = 0
KVA1 230314Z 28004KT 16/M07 A3001 RMK A01 T01591073  RH  020%=      5-min Rain = 0
KVA1 230315Z 28004KT 16/M07 A3002 RMK A01 T01581073  RH  020%=      5-min Rain = 0
KVA1 230316Z 29003KT 16/M07 A3002 RMK A01 T01571074  RH  020%=      5-min Rain = 0
KVA1 230317Z 31003KT 16/M07 A3002 RMK A01 T01551074  RH  020%=      5-min Rain = 0
KVA1 230318Z 30004KT 15/M07 A3002 RMK A01 T01531073  RH  020%=      5-min Rain = 0
KVA1 230319Z 30005KT 15/M07 A3002 RMK A01 T01521073  RH  020%=      5-min Rain = 0
KVA1 230320Z 30005KT 15/M07 A3002 RMK A01 T01521073  RH  020%=      5-min Rain = 0
KVA1 230321Z 28005KT 15/M07 A3002 RMK A01 T01531073  RH  020%=      5-min Rain = 0
KVA1 230322Z 29006KT 15/M07 A3002 RMK A01 T01521074  RH  020%=      5-min Rain = 0
KVA1 230323Z 30005KT 15/M07 A3002 RMK A01 T01511074  RH  020%=      5-min Rain = 0
KVA1 230324Z 30005KT 15/M08 A3002 RMK A01 T01491075  RH  021%=      5-min Rain = 0
KVA1 230325Z 30005KT 15/M07 A3002 RMK A01 T01471074  RH  021%=      5-min Rain = 0
KVA1 230326Z 29007KT 15/M08 A3002 RMK A01 T01451075  RH  021%=      5-min Rain = 0
KVA1 230327Z 29006KT 15/M08 A3002 RMK A01 T01451076  RH  021%=      5-min Rain = 0
KVA1 230328Z 28005KT 15/M08 A3002 RMK A01 T01471076  RH  021%=      5-min Rain = 0
KVA1 230329Z 28005KT 15/M08 A3002 RMK A01 T01501075  RH  020%=      5-min Rain = 0
KVA1 230330Z 28004KT 15/M08 A3002 RMK A01 T01511075  RH  020%=      5-min Rain = 0
KVA1 230331Z 29005KT 15/M08 A3002 RMK A01 T01511075  RH  020%=      5-min Rain = 0
KVA1 230332Z 28006KT 15/M08 A3003 RMK A01 T01491076  RH  020%=      5-min Rain = 0
KVA1 230333Z 28005KT 15/M08 A3002 RMK A01 T01481076  RH  021%=      5-min Rain = 0
KVA1 230334Z 29005KT 15/M08 A3003 RMK A01 T01491075  RH  021%=      5-min Rain = 0
KVA1 230335Z 29005KT 15/M07 A3003 RMK A01 T01491074  RH  021%=      5-min Rain = 0
KVA1 230336Z 29005KT 15/M07 A3003 RMK A01 T01501074  RH  021%=      5-min Rain = 0
KVA1 230337Z 30004KT 15/M08 A3003 RMK A01 T01501075  RH  021%=      5-min Rain = 0
KVA1 230338Z 30004KT 15/M08 A3003 RMK A01 T01481076  RH  021%=      5-min Rain = 0
KVA1 230339Z 30005KT 15/M08 A3003 RMK A01 T01461075  RH  021%=      5-min Rain = 0
KVA1 230340Z 30006KT 14/M08 A3003 RMK A01 T01441075  RH  021%=      5-min Rain = 0
KVA1 230341Z 30005KT 14/M08 A3003 RMK A01 T01431075  RH  021%=      5-min Rain = 0
KVA1 230342Z 30004KT 14/M08 A3003 RMK A01 T01411075  RH  022%=      5-min Rain = 0
KVA1 230343Z 29005KT 14/M08 A3003 RMK A01 T01401075  RH  022%=      5-min Rain = 0
KVA1 230344Z 28005KT 14/M08 A3003 RMK A01 T01381075  RH  022%=      5-min Rain = 0
KVA1 230345Z 28006KT 14/M08 A3003 RMK A01 T01371076  RH  022%=      5-min Rain = 0
KVA1 230346Z 29006KT 14/M08 A3003 RMK A01 T01391076  RH  022%=      5-min Rain = 0
KVA1 230347Z 30004KT 14/M08 A3003 RMK A01 T01411076  RH  022%=      5-min Rain = 0
KVA1 230348Z 32003KT 14/M08 A3003 RMK A01 T01391076  RH  022%=      5-min Rain = 0
KVA1 230349Z 32004KT 14/M08 A3003 RMK A01 T01361076  RH  022%=      5-min Rain = 0
KVA1 230350Z 28004KT 14/M08 A3003 RMK A01 T01361077  RH  022%=      5-min Rain = 0
KVA1 230351Z 29005KT 14/M08 A3004 RMK A01 T01391076  RH  022%=      5-min Rain = 0
KVA1 230352Z 29004KT 14/M08 A3004 RMK A01 T01411076  RH  021%=      5-min Rain = 0
KVA1 230353Z 29005KT 14/M08 A3004 RMK A01 T01421077  RH  021%=      5-min Rain = 0
KVA1 230354Z 29005KT 14/M08 A3004 RMK A01 T01411078  RH  021%=      5-min Rain = 0
KVA1 230355Z 29005KT 14/M08 A3004 RMK A01 T01391079  RH  021%=      5-min Rain = 0
KVA1 230356Z 29004KT 14/M08 A3004 RMK A01 T01381079  RH  021%=      5-min Rain = 0
KVA1 230357Z 29004KT 14/M08 A3004 RMK A01 T01381079  RH  021%=      5-min Rain = 0
KVA1 230358Z 30004KT 14/M08 A3004 RMK A01 T01381079  RH  021%=      5-min Rain = 0
KVA1 230359Z 31003KT 14/M08 A3004 RMK A01 T01401079  RH  021%=      5-min Rain = 0
KVA1 230400Z 31004KT 14/M08 A3004 RMK A01 T01381079  RH  021%=      5-min Rain = 0
KVA1 230401Z 30005KT 14/M08 A3004 RMK A01 T01361079  RH  022%=      5-min Rain = 0
KVA1 230402Z 31006KT 13/M08 A3004 RMK A01 T01341079  RH  022%=      5-min Rain = 0
KVA1 230403Z 32004KT 13/M08 A3004 RMK A01 T01331079  RH  022%=      5-min Rain = 0
KVA1 230404Z 31005KT 13/M08 A3004 RMK A01 T01331079  RH  022%=      5-min Rain = 0
KVA1 230405Z 33005KT 13/M08 A3004 RMK A01 T01331079  RH  022%=      5-min Rain = 0
KVA1 230406Z 33003KT 13/M08 A3004 RMK A01 T01331079  RH  022%=      5-min Rain = 0
KVA1 230407Z 33003KT 13/M08 A3004 RMK A01 T01331079  RH  022%=      5-min Rain = 0
KVA1 230408Z 29003KT 13/M08 A3004 RMK A01 T01321079  RH  022%=      5-min Rain = 0
KVA1 230409Z 29003KT 13/M08 A3004 RMK A01 T01321079  RH  022%=      5-min Rain = 0
KVA1 230410Z 31001KT 13/M08 A3004 RMK A01 T01331080  RH  022%=      5-min Rain = 0
KVA1 230411Z 29003KT 14/M08 A3004 RMK A01 T01351079  RH  022%=      5-min Rain = 0
KVA1 230412Z 30004KT 13/M08 A3004 RMK A01 T01341079  RH  022%=      5-min Rain = 0
KVA1 230413Z 31003KT 13/M08 A3004 RMK A01 T01321080  RH  022%=      5-min Rain = 0
KVA1 230414Z 31005KT 13/M08 A3004 RMK A01 T01311081  RH  022%=      5-min Rain = 0
KVA1 230415Z 31003KT 14/M08 A3004 RMK A01 T01351079  RH  022%=      5-min Rain = 0
KVA1 230416Z 32003KT 14/M08 A3004 RMK A01 T01421078  RH  021%=      5-min Rain = 0
KVA1 230417Z 31002KT 14/M08 A3004 RMK A01 T01441079  RH  021%=      5-min Rain = 0
KVA1 230418Z 30002KT 15/M08 A3004 RMK A01 T01461081  RH  020%=      5-min Rain = 0
KVA1 230419Z 29003KT 15/M08 A3004 RMK A01 T01501080  RH  020%=      5-min Rain = 0
KVA1 230420Z 31005KT 15/M08 A3004 RMK A01 T01521079  RH  020%=      5-min Rain = 0
KVA1 230421Z 33004KT 15/M08 A3004 RMK A01 T01511081  RH  019%=      5-min Rain = 0
KVA1 230422Z 32003KT 15/M08 A3004 RMK A01 T01501081  RH  020%=      5-min Rain = 0
KVA1 230423Z 28004KT 15/M08 A3004 RMK A01 T01481081  RH  020%=      5-min Rain = 0
KVA1 230424Z 29004KT 15/M08 A3004 RMK A01 T01471081  RH  020%=      5-min Rain = 0
KVA1 230425Z 29005KT 15/M08 A3004 RMK A01 T01501079  RH  020%=      5-min Rain = 0
KVA1 230426Z 28005KT 15/M08 A3004 RMK A01 T01531079  RH  019%=      5-min Rain = 0
KVA1 230427Z 28006KT 15/M08 A3004 RMK A01 T01541079  RH  019%=      5-min Rain = 0
KVA1 230428Z 28006KT 15/M08 A3004 RMK A01 T01531079  RH  019%=      5-min Rain = 0
KVA1 230429Z 29005KT 15/M08 A3004 RMK A01 T01541079  RH  019%=      5-min Rain = 0
KVA1 230430Z 29005KT 15/M08 A3004 RMK A01 T01531079  RH  019%=      5-min Rain = 0
KVA1 230431Z 29005KT 15/M08 A3004 RMK A01 T01531079  RH  020%=      5-min Rain = 0
KVA1 230432Z 29005KT 15/M08 A3004 RMK A01 T01521079  RH  020%=      5-min Rain = 0
KVA1 230433Z 29005KT 15/M08 A3004 RMK A01 T01511079  RH  020%=      5-min Rain = 0
KVA1 230434Z 29005KT 15/M08 A3004 RMK A01 T01481079  RH  020%=      5-min Rain = 0
KVA1 230435Z 29005KT 15/M08 A3004 RMK A01 T01471079  RH  020%=      5-min Rain = 0
KVA1 230436Z 29004KT 15/M08 A3004 RMK A01 T01471079  RH  020%=      5-min Rain = 0
KVA1 230437Z 28003KT 15/M08 A3004 RMK A01 T01471079  RH  020%=      5-min Rain = 0
KVA1 230438Z 29004KT 15/M08 A3004 RMK A01 T01481078  RH  020%=      5-min Rain = 0
KVA1 230439Z 28004KT 15/M08 A3004 RMK A01 T01471078  RH  020%=      5-min Rain = 0
KVA1 230440Z 29003KT 15/M08 A3004 RMK A01 T01471078  RH  020%=      5-min Rain = 0
KVA1 230441Z 29003KT 15/M08 A3004 RMK A01 T01461078  RH  020%=      5-min Rain = 0
KVA1 230442Z 29004KT 15/M08 A3004 RMK A01 T01451078  RH  021%=      5-min Rain = 0
KVA1 230443Z 28003KT 14/M08 A3004 RMK A01 T01441078  RH  021%=      5-min Rain = 0
KVA1 230444Z 27002KT 14/M08 A3004 RMK A01 T01421079  RH  021%=      5-min Rain = 0
KVA1 230445Z 28003KT 14/M08 A3004 RMK A01 T01411079  RH  021%=      5-min Rain = 0
KVA1 230446Z 29003KT 14/M08 A3004 RMK A01 T01411078  RH  021%=      5-min Rain = 0
KVA1 230447Z 29004KT 14/M08 A3004 RMK A01 T01411078  RH  021%=      5-min Rain = 0
KVA1 230448Z 28004KT 14/M08 A3004 RMK A01 T01421078  RH  021%=      5-min Rain = 0
KVA1 230449Z 28004KT 14/M08 A3004 RMK A01 T01421078  RH  021%=      5-min Rain = 0
KVA1 230450Z 27005KT 14/M08 A3004 RMK A01 T01421078  RH  021%=      5-min Rain = 0
KVA1 230451Z 28005KT 14/M08 A3004 RMK A01 T01421077  RH  021%=      5-min Rain = 0
KVA1 230452Z 27003KT 14/M08 A3004 RMK A01 T01411078  RH  021%=      5-min Rain = 0
KVA1 230453Z 29003KT 14/M08 A3004 RMK A01 T01371080  RH  021%=      5-min Rain = 0
KVA1 230454Z 27004KT 13/M08 A3004 RMK A01 T01341080  RH  022%=      5-min Rain = 0
KVA1 230455Z 27004KT 13/M08 A3004 RMK A01 T01321080  RH  022%=      5-min Rain = 0
KVA1 230456Z 28005KT 13/M08 A3005 RMK A01 T01321079  RH  022%=      5-min Rain = 0
KVA1 230457Z 27004KT 13/M08 A3005 RMK A01 T01331078  RH  022%=      5-min Rain = 0
KVA1 230458Z 27005KT 13/M08 A3005 RMK A01 T01331079  RH  022%=      5-min Rain = 0
KVA1 230459Z 27006KT 13/M08 A3005 RMK A01 T01341079  RH  022%=      5-min Rain = 0

Page generated in 0.211 seconds.